Observation data for Canadian on 08/14/2019      Previous  Date  Next       Current Mesonet Observations  Soil Data  Daily Summary Page  Observations in Plain Language
KCA1 140500Z 04020KT 21/14 A3017 RMK A01 T02100140  RH  064%=      5-min Rain = 0
KCA1 140501Z 04017KT 21/14 A3017 RMK A01 T02090140  RH  065%=      5-min Rain = 0
KCA1 140502Z 04021KT 21/14 A3017 RMK A01 T02090140  RH  065%=      5-min Rain = 0
KCA1 140503Z 04022G27KT 21/14 A3017 RMK A01 T02090140  RH  064%=      5-min Rain = 0
KCA1 140504Z 04020KT 21/14 A3017 RMK A01 T02090139  RH  064%=      5-min Rain = 0
KCA1 140505Z 04022G28KT 21/14 A3017 RMK A01 T02090139  RH  064%=      5-min Rain = 0
KCA1 140506Z 04022G27KT 21/14 A3017 RMK A01 T02090139  RH  064%=      5-min Rain = 0
KCA1 140507Z 04024G30KT 21/14 A3017 RMK A01 T02090138  RH  064%=      5-min Rain = 0
KCA1 140508Z 03022KT 21/14 A3017 RMK A01 T02090138  RH  064%=      5-min Rain = 0
KCA1 140509Z 03022G29KT 21/14 A3017 RMK A01 T02090139  RH  064%=      5-min Rain = 0
KCA1 140510Z 04022G27KT 21/14 A3017 RMK A01 T02090137  RH  064%=      5-min Rain = 0
KCA1 140524Z 03018KT 21/14 A3017 RMK A01 T02090137  RH  064%=      5-min Rain = 0
KCA1 140525Z 03014KT 21/14 A3017 RMK A01 T02090138  RH  064%=      5-min Rain = 0
KCA1 140526Z 03017G23KT 21/14 A3017 RMK A01 T02080138  RH  064%=      5-min Rain = 0
KCA1 140527Z 03018G23KT 21/14 A3017 RMK A01 T02080138  RH  064%=      5-min Rain = 0
KCA1 140528Z 03019KT 21/14 A3017 RMK A01 T02080138  RH  064%=      5-min Rain = 0
KCA1 140529Z 03018G24KT 21/14 A3017 RMK A01 T02080138  RH  064%=      5-min Rain = 0
KCA1 140530Z 03020G25KT 21/14 A3017 RMK A01 T02080139  RH  064%=      5-min Rain = 0
KCA1 140531Z 03017KT 21/14 A3017 RMK A01 T02080138  RH  064%=      5-min Rain = 0
KCA1 140532Z 04018KT 21/14 A3017 RMK A01 T02070139  RH  065%=      5-min Rain = 0
KCA1 140533Z 04019KT 21/14 A3017 RMK A01 T02070139  RH  065%=      5-min Rain = 0
KCA1 140534Z 04017KT 21/14 A3017 RMK A01 T02070139  RH  065%=      5-min Rain = 0
KCA1 140535Z 04016KT 21/14 A3017 RMK A01 T02070139  RH  065%=      5-min Rain = 0
KCA1 140536Z 04023KT 21/14 A3017 RMK A01 T02070139  RH  065%=      5-min Rain = 0
KCA1 140537Z 04019KT 21/14 A3017 RMK A01 T02080139  RH  065%=      5-min Rain = 0
KCA1 140538Z 04021KT 21/14 A3017 RMK A01 T02080140  RH  065%=      5-min Rain = 0
KCA1 140539Z 04020G25KT 21/14 A3016 RMK A01 T02080140  RH  065%=      5-min Rain = 0
KCA1 140540Z 04018KT 21/14 A3016 RMK A01 T02080140  RH  065%=      5-min Rain = 0
KCA1 140541Z 03016G22KT 21/14 A3016 RMK A01 T02080140  RH  065%=      5-min Rain = 0
KCA1 140542Z 04018G23KT 21/14 A3016 RMK A01 T02070141  RH  066%=      5-min Rain = 0
KCA1 140543Z 04018G23KT 21/14 A3016 RMK A01 T02070142  RH  066%=      5-min Rain = 0
KCA1 140544Z 04017KT 21/14 A3016 RMK A01 T02070142  RH  066%=      5-min Rain = 0
KCA1 140545Z 04018G23KT 21/14 A3016 RMK A01 T02060142  RH  067%=      5-min Rain = 0
KCA1 140546Z 03019KT 21/14 A3016 RMK A01 T02060143  RH  067%=      5-min Rain = 0
KCA1 140547Z 04017KT 21/14 A3016 RMK A01 T02060143  RH  067%=      5-min Rain = 0
KCA1 140548Z 04022KT 21/14 A3016 RMK A01 T02050143  RH  067%=      5-min Rain = 0
KCA1 140549Z 04020KT 21/14 A3016 RMK A01 T02060144  RH  068%=      5-min Rain = 0
KCA1 140550Z 04021KT 21/14 A3016 RMK A01 T02050144  RH  068%=      5-min Rain = 0
KCA1 140551Z 04022KT 21/14 A3016 RMK A01 T02050144  RH  068%=      5-min Rain = 0
KCA1 140552Z 04019G26KT 21/15 A3016 RMK A01 T02050145  RH  068%=      5-min Rain = 0
KCA1 140553Z 05016G21KT 21/15 A3016 RMK A01 T02050145  RH  069%=      5-min Rain = 0
KCA1 140554Z 04018KT 20/15 A3016 RMK A01 T02040145  RH  069%=      5-min Rain = 0
KCA1 140555Z 04019KT 20/15 A3016 RMK A01 T02040145  RH  069%=      5-min Rain = 0
KCA1 140556Z 04020KT 20/15 A3015 RMK A01 T02040146  RH  069%=      5-min Rain = 0
KCA1 140557Z 04018KT 20/15 A3016 RMK A01 T02030146  RH  070%=      5-min Rain = 0
KCA1 140558Z 04019KT 20/15 A3015 RMK A01 T02030146  RH  070%=      5-min Rain = 0
KCA1 140559Z 04015KT 20/15 A3015 RMK A01 T02030146  RH  070%=      5-min Rain = 0
KCA1 140600Z 04016KT 20/15 A3016 RMK A01 T02030146  RH  070%=      5-min Rain = 0
KCA1 140601Z 04013KT 20/15 A3016 RMK A01 T02020147  RH  070%=      5-min Rain = 0
KCA1 140602Z 05012KT 20/15 A3016 RMK A01 T02020146  RH  070%=      5-min Rain = 0
KCA1 140603Z 05014KT 20/15 A3016 RMK A01 T02010146  RH  071%=      5-min Rain = 0
KCA1 140604Z 05010KT 20/15 A3016 RMK A01 T02010146  RH  071%=      5-min Rain = 0
KCA1 140605Z 05010KT 20/15 A3016 RMK A01 T02010147  RH  071%=      5-min Rain = 0
KCA1 140606Z 04013KT 20/15 A3016 RMK A01 T02000147  RH  071%=      5-min Rain = 0
KCA1 140607Z 04014KT 20/15 A3016 RMK A01 T02000147  RH  072%=      5-min Rain = 0
KCA1 140608Z 04014KT 20/15 A3016 RMK A01 T02000147  RH  072%=      5-min Rain = 0
KCA1 140609Z 04014KT 20/15 A3016 RMK A01 T02000148  RH  072%=      5-min Rain = 0
KCA1 140610Z 04013KT 20/15 A3016 RMK A01 T02000148  RH  072%=      5-min Rain = 0
KCA1 140611Z 04015KT 20/15 A3016 RMK A01 T02000148  RH  072%=      5-min Rain = 0
KCA1 140612Z 04015KT 20/15 A3016 RMK A01 T02000148  RH  072%=      5-min Rain = 0
KCA1 140613Z 03014KT 20/15 A3016 RMK A01 T02000148  RH  072%=      5-min Rain = 0
KCA1 140614Z 03013KT 20/15 A3016 RMK A01 T01990149  RH  072%=      5-min Rain = 0
KCA1 140615Z 04013KT 20/15 A3016 RMK A01 T01990149  RH  073%=      5-min Rain = 0
KCA1 140616Z 03013KT 20/15 A3016 RMK A01 T01990149  RH  073%=      5-min Rain = 0
KCA1 140617Z 04012KT 20/15 A3016 RMK A01 T01990149  RH  073%=      5-min Rain = 0
KCA1 140618Z 03014KT 20/15 A3016 RMK A01 T01980149  RH  073%=      5-min Rain = 0
KCA1 140619Z 04013KT 20/15 A3016 RMK A01 T01980149  RH  073%=      5-min Rain = 0
KCA1 140620Z 03013KT 20/15 A3016 RMK A01 T01980149  RH  073%=      5-min Rain = 0
KCA1 140621Z 04014KT 20/15 A3016 RMK A01 T01990149  RH  073%=      5-min Rain = 0
KCA1 140622Z 04012KT 20/15 A3016 RMK A01 T01990149  RH  073%=      5-min Rain = 0
KCA1 140623Z 04011KT 20/15 A3016 RMK A01 T01980149  RH  073%=      5-min Rain = 0
KCA1 140624Z 04011KT 20/15 A3016 RMK A01 T01980149  RH  074%=      5-min Rain = 0
KCA1 140625Z 04010KT 20/15 A3016 RMK A01 T01980150  RH  074%=      5-min Rain = 0
KCA1 140626Z 05011KT 20/15 A3016 RMK A01 T01970150  RH  074%=      5-min Rain = 0
KCA1 140627Z 05011KT 20/15 A3016 RMK A01 T01970149  RH  074%=      5-min Rain = 0
KCA1 140628Z 05010KT 20/15 A3016 RMK A01 T01970150  RH  074%=      5-min Rain = 0
KCA1 140629Z 05009KT 20/15 A3016 RMK A01 T01960150  RH  074%=      5-min Rain = 0
KCA1 140630Z 05009KT 20/15 A3015 RMK A01 T01960150  RH  075%=      5-min Rain = 0
KCA1 140631Z 06008KT 20/15 A3016 RMK A01 T01960150  RH  075%=      5-min Rain = 0
KCA1 140632Z 06010KT 20/15 A3016 RMK A01 T01950150  RH  075%=      5-min Rain = 0
KCA1 140633Z 06008KT 20/15 A3016 RMK A01 T01950150  RH  075%=      5-min Rain = 0
KCA1 140634Z 06011KT 20/15 A3016 RMK A01 T01950150  RH  075%=      5-min Rain = 0
KCA1 140635Z 06009KT 20/15 A3016 RMK A01 T01960150  RH  075%=      5-min Rain = 0
KCA1 140636Z 06013KT 20/15 A3015 RMK A01 T01950149  RH  075%=      5-min Rain = 0
KCA1 140637Z 05010KT 20/15 A3015 RMK A01 T01960149  RH  074%=      5-min Rain = 0
KCA1 140638Z 05010KT 20/15 A3015 RMK A01 T01960149  RH  074%=      5-min Rain = 0
KCA1 140639Z 05011KT 20/15 A3015 RMK A01 T01960150  RH  074%=      5-min Rain = 0
KCA1 140640Z 05009KT 20/15 A3015 RMK A01 T01960149  RH  074%=      5-min Rain = 0
KCA1 140641Z 05010KT 20/15 A3015 RMK A01 T01960150  RH  074%=      5-min Rain = 0
KCA1 140642Z 05007KT 20/15 A3015 RMK A01 T01960150  RH  075%=      5-min Rain = 0
KCA1 140643Z 05009KT 20/15 A3015 RMK A01 T01950150  RH  075%=      5-min Rain = 0
KCA1 140644Z 05007KT 20/15 A3015 RMK A01 T01950150  RH  075%=      5-min Rain = 0
KCA1 140645Z 05007KT 19/15 A3015 RMK A01 T01940150  RH  075%=      5-min Rain = 0
KCA1 140646Z 05012KT 19/15 A3015 RMK A01 T01940150  RH  075%=      5-min Rain = 0
KCA1 140647Z 05011KT 19/15 A3015 RMK A01 T01940149  RH  075%=      5-min Rain = 0
KCA1 140648Z 06012KT 20/15 A3015 RMK A01 T01950149  RH  075%=      5-min Rain = 0
KCA1 140649Z 05011KT 20/15 A3015 RMK A01 T01950149  RH  075%=      5-min Rain = 0
KCA1 140650Z 05011KT 20/15 A3015 RMK A01 T01950150  RH  075%=      5-min Rain = 0
KCA1 140651Z 05011KT 20/15 A3015 RMK A01 T01950149  RH  075%=      5-min Rain = 0
KCA1 140652Z 05009KT 20/15 A3015 RMK A01 T01960150  RH  075%=      5-min Rain = 0
KCA1 140653Z 04009KT 20/15 A3015 RMK A01 T01950150  RH  075%=      5-min Rain = 0
KCA1 140654Z 04010G15KT 20/15 A3015 RMK A01 T01950150  RH  075%=      5-min Rain = 0
KCA1 140655Z 04010KT 20/15 A3015 RMK A01 T01950150  RH  075%=      5-min Rain = 0
KCA1 140656Z 04010KT 19/15 A3015 RMK A01 T01940149  RH  075%=      5-min Rain = 0
KCA1 140657Z 05009KT 20/15 A3016 RMK A01 T01950149  RH  075%=      5-min Rain = 0
KCA1 140658Z 04010KT 20/15 A3016 RMK A01 T01950150  RH  075%=      5-min Rain = 0
KCA1 140659Z 05009KT 19/15 A3015 RMK A01 T01940150  RH  075%=      5-min Rain = 0
KCA1 140700Z 05008KT 19/15 A3015 RMK A01 T01940149  RH  075%=      5-min Rain = 0
KCA1 140701Z 05009KT 19/15 A3015 RMK A01 T01940150  RH  075%=      5-min Rain = 0
KCA1 140702Z 06010KT 19/15 A3015 RMK A01 T01940150  RH  076%=      5-min Rain = 0
KCA1 140703Z 05008KT 19/15 A3016 RMK A01 T01930150  RH  076%=      5-min Rain = 0
KCA1 140704Z 06008KT 19/15 A3016 RMK A01 T01930150  RH  076%=      5-min Rain = 0
KCA1 140705Z 06009KT 19/15 A3016 RMK A01 T01930150  RH  076%=      5-min Rain = 0
KCA1 140706Z 06008KT 19/15 A3016 RMK A01 T01920150  RH  077%=      5-min Rain = 0
KCA1 140707Z 06009KT 19/15 A3016 RMK A01 T01920150  RH  077%=      5-min Rain = 0
KCA1 140708Z 06010KT 19/15 A3016 RMK A01 T01920150  RH  077%=      5-min Rain = 0
KCA1 140709Z 07011KT 19/15 A3016 RMK A01 T01910150  RH  077%=      5-min Rain = 0
KCA1 140710Z 06008KT 19/15 A3016 RMK A01 T01910150  RH  077%=      5-min Rain = 0
KCA1 140711Z 06009KT 19/15 A3016 RMK A01 T01910150  RH  077%=      5-min Rain = 0
KCA1 140712Z 07008KT 19/15 A3016 RMK A01 T01910150  RH  077%=      5-min Rain = 0
KCA1 140713Z 06007KT 19/15 A3016 RMK A01 T01910150  RH  077%=      5-min Rain = 0
KCA1 140714Z 07008KT 19/15 A3016 RMK A01 T01910151  RH  077%=      5-min Rain = 0
KCA1 140715Z 07006KT 19/15 A3016 RMK A01 T01910150  RH  077%=      5-min Rain = 0
KCA1 140716Z 05006KT 19/15 A3016 RMK A01 T01900150  RH  077%=      5-min Rain = 0
KCA1 140717Z 06006KT 19/15 A3016 RMK A01 T01900150  RH  078%=      5-min Rain = 0
KCA1 140718Z 06006KT 19/15 A3016 RMK A01 T01900150  RH  078%=      5-min Rain = 0
KCA1 140719Z 06007KT 19/15 A3016 RMK A01 T01890150  RH  078%=      5-min Rain = 0
KCA1 140720Z 06007KT 19/15 A3016 RMK A01 T01890150  RH  078%=      5-min Rain = 0
KCA1 140721Z 06007KT 19/15 A3016 RMK A01 T01890150  RH  078%=      5-min Rain = 0
KCA1 140722Z 06006KT 19/15 A3016 RMK A01 T01890151  RH  079%=      5-min Rain = 0
KCA1 140723Z 06007KT 19/15 A3016 RMK A01 T01880150  RH  079%=      5-min Rain = 0
KCA1 140724Z 06008KT 19/15 A3016 RMK A01 T01880150  RH  079%=      5-min Rain = 0
KCA1 140725Z 06007KT 19/15 A3016 RMK A01 T01880151  RH  079%=      5-min Rain = 0
KCA1 140726Z 06006KT 19/15 A3016 RMK A01 T01880150  RH  079%=      5-min Rain = 0
KCA1 140727Z 05006KT 19/15 A3016 RMK A01 T01880151  RH  079%=      5-min Rain = 0
KCA1 140728Z 05006KT 19/15 A3016 RMK A01 T01860150  RH  079%=      5-min Rain = 0
KCA1 140729Z 06008KT 19/15 A3016 RMK A01 T01860150  RH  080%=      5-min Rain = 0
KCA1 140730Z 05007KT 19/15 A3016 RMK A01 T01860150  RH  080%=      5-min Rain = 0
KCA1 140731Z 06008KT 19/15 A3016 RMK A01 T01860151  RH  080%=      5-min Rain = 0
KCA1 140732Z 06008KT 19/15 A3016 RMK A01 T01860150  RH  080%=      5-min Rain = 0
KCA1 140733Z 06008KT 19/15 A3016 RMK A01 T01860151  RH  080%=      5-min Rain = 0
KCA1 140734Z 06008KT 19/15 A3016 RMK A01 T01860151  RH  080%=      5-min Rain = 0
KCA1 140735Z 06007KT 19/15 A3016 RMK A01 T01860151  RH  080%=      5-min Rain = 0
KCA1 140736Z 06007KT 19/15 A3016 RMK A01 T01860151  RH  080%=      5-min Rain = 0
KCA1 140737Z 06008KT 19/15 A3016 RMK A01 T01850150  RH  080%=      5-min Rain = 0
KCA1 140738Z 07006KT 19/15 A3016 RMK A01 T01850151  RH  080%=      5-min Rain = 0
KCA1 140739Z 07006KT 19/15 A3016 RMK A01 T01850150  RH  080%=      5-min Rain = 0
KCA1 140740Z 07005KT 18/15 A3016 RMK A01 T01840150  RH  081%=      5-min Rain = 0
KCA1 140741Z 07005KT 18/15 A3016 RMK A01 T01840151  RH  081%=      5-min Rain = 0
KCA1 140742Z 07005KT 18/15 A3016 RMK A01 T01830151  RH  081%=      5-min Rain = 0
KCA1 140743Z 07006KT 18/15 A3016 RMK A01 T01830151  RH  082%=      5-min Rain = 0
KCA1 140744Z 07006KT 18/15 A3016 RMK A01 T01820150  RH  082%=      5-min Rain = 0
KCA1 140745Z 07005KT 18/15 A3016 RMK A01 T01820151  RH  082%=      5-min Rain = 0
KCA1 140746Z 07006KT 18/15 A3016 RMK A01 T01820151  RH  082%=      5-min Rain = 0
KCA1 140747Z 06007KT 18/15 A3016 RMK A01 T01820151  RH  082%=      5-min Rain = 0
KCA1 140748Z 06008KT 18/15 A3015 RMK A01 T01820151  RH  082%=      5-min Rain = 0
KCA1 140749Z 06007KT 18/15 A3015 RMK A01 T01810150  RH  082%=      5-min Rain = 0
KCA1 140750Z 06006KT 18/15 A3015 RMK A01 T01820151  RH  082%=      5-min Rain = 0
KCA1 140751Z 07007KT 18/15 A3015 RMK A01 T01820151  RH  082%=      5-min Rain = 0
KCA1 140752Z 07007KT 18/15 A3015 RMK A01 T01810151  RH  082%=      5-min Rain = 0
KCA1 140753Z 07007KT 18/15 A3015 RMK A01 T01800151  RH  083%=      5-min Rain = 0
KCA1 140754Z 07007KT 18/15 A3015 RMK A01 T01800151  RH  083%=      5-min Rain = 0
KCA1 140755Z 06006KT 18/15 A3015 RMK A01 T01800151  RH  083%=      5-min Rain = 0
KCA1 140756Z 07006KT 18/15 A3015 RMK A01 T01800151  RH  083%=      5-min Rain = 0
KCA1 140757Z 06004KT 18/15 A3015 RMK A01 T01800151  RH  083%=      5-min Rain = 0
KCA1 140758Z 07005KT 18/15 A3015 RMK A01 T01790151  RH  084%=      5-min Rain = 0
KCA1 140759Z 08005KT 18/15 A3015 RMK A01 T01790151  RH  084%=      5-min Rain = 0
KCA1 140800Z 07004KT 18/15 A3015 RMK A01 T01790151  RH  084%=      5-min Rain = 0
KCA1 140801Z 08004KT 18/15 A3015 RMK A01 T01780151  RH  084%=      5-min Rain = 0
KCA1 140802Z 08003KT 18/15 A3015 RMK A01 T01780151  RH  084%=      5-min Rain = 0
KCA1 140803Z 07001KT 18/15 A3015 RMK A01 T01780151  RH  085%=      5-min Rain = 0
KCA1 140804Z 08001KT 18/15 A3015 RMK A01 T01770151  RH  085%=      5-min Rain = 0
KCA1 140805Z 04001KT 18/15 A3015 RMK A01 T01770151  RH  085%=      5-min Rain = 0
KCA1 140806Z 00000KT 18/15 A3015 RMK A01 T01770151  RH  085%=      5-min Rain = 0
KCA1 140807Z 21000KT 18/15 A3015 RMK A01 T01770151  RH  085%=      5-min Rain = 0
KCA1 140808Z 23000KT 18/15 A3015 RMK A01 T01770151  RH  085%=      5-min Rain = 0
KCA1 140809Z 22000KT 18/15 A3015 RMK A01 T01760151  RH  085%=      5-min Rain = 0
KCA1 140810Z 21001KT 18/15 A3015 RMK A01 T01750151  RH  086%=      5-min Rain = 0
KCA1 140811Z 21001KT 17/15 A3015 RMK A01 T01740150  RH  086%=      5-min Rain = 0
KCA1 140812Z 21001KT 17/15 A3014 RMK A01 T01730150  RH  086%=      5-min Rain = 0
KCA1 140813Z 21002KT 17/15 A3014 RMK A01 T01730150  RH  087%=      5-min Rain = 0
KCA1 140814Z 22002KT 17/15 A3014 RMK A01 T01720150  RH  087%=      5-min Rain = 0
KCA1 140815Z 23001KT 17/15 A3014 RMK A01 T01710150  RH  087%=      5-min Rain = 0
KCA1 140816Z 24001KT 17/15 A3014 RMK A01 T01710150  RH  088%=      5-min Rain = 0
KCA1 140817Z 24001KT 17/15 A3014 RMK A01 T01710151  RH  088%=      5-min Rain = 0
KCA1 140818Z 21001KT 17/15 A3014 RMK A01 T01710150  RH  088%=      5-min Rain = 0
KCA1 140819Z 19001KT 17/15 A3014 RMK A01 T01710150  RH  088%=      5-min Rain = 0
KCA1 140820Z 21001KT 17/15 A3014 RMK A01 T01710151  RH  088%=      5-min Rain = 0
KCA1 140821Z 20001KT 17/15 A3014 RMK A01 T01720150  RH  087%=      5-min Rain = 0
KCA1 140822Z 19001KT 17/15 A3013 RMK A01 T01720150  RH  087%=      5-min Rain = 0
KCA1 140823Z 19000KT 17/15 A3013 RMK A01 T01720150  RH  087%=      5-min Rain = 0
KCA1 140824Z 16001KT 17/15 A3013 RMK A01 T01720150  RH  087%=      5-min Rain = 0
KCA1 140825Z 16001KT 17/15 A3013 RMK A01 T01730151  RH  087%=      5-min Rain = 0
KCA1 140826Z 15001KT 17/15 A3013 RMK A01 T01730151  RH  087%=      5-min Rain = 0
KCA1 140827Z 16002KT 17/15 A3013 RMK A01 T01730151  RH  087%=      5-min Rain = 0
KCA1 140828Z 15002KT 17/15 A3013 RMK A01 T01740151  RH  086%=      5-min Rain = 0
KCA1 140829Z 16002KT 18/15 A3013 RMK A01 T01750151  RH  086%=      5-min Rain = 0
KCA1 140830Z 16002KT 18/15 A3013 RMK A01 T01750151  RH  086%=      5-min Rain = 0
KCA1 140831Z 16002KT 18/15 A3013 RMK A01 T01750151  RH  086%=      5-min Rain = 0
KCA1 140832Z 16002KT 18/15 A3013 RMK A01 T01750151  RH  086%=      5-min Rain = 0
KCA1 140833Z 17002KT 18/15 A3013 RMK A01 T01750151  RH  086%=      5-min Rain = 0
KCA1 140834Z 17001KT 17/15 A3013 RMK A01 T01740151  RH  086%=      5-min Rain = 0
KCA1 140835Z 28000KT 17/15 A3013 RMK A01 T01740151  RH  087%=      5-min Rain = 0
KCA1 140836Z 31002KT 17/15 A3013 RMK A01 T01730151  RH  087%=      5-min Rain = 0
KCA1 140837Z 31005KT 17/15 A3013 RMK A01 T01710150  RH  087%=      5-min Rain = 0
KCA1 140838Z 32005KT 17/15 A3013 RMK A01 T01680149  RH  088%=      5-min Rain = 0
KCA1 140839Z 32004KT 17/15 A3013 RMK A01 T01670150  RH  090%=      5-min Rain = 0
KCA1 140840Z 32002KT 17/15 A3012 RMK A01 T01660150  RH  091%=      5-min Rain = 0
KCA1 140841Z 32000KT 17/15 A3012 RMK A01 T01650150  RH  091%=      5-min Rain = 0
KCA1 140842Z 15001KT 17/15 A3011 RMK A01 T01650151  RH  091%=      5-min Rain = 0
KCA1 140843Z 13001KT 17/15 A3011 RMK A01 T01650151  RH  091%=      5-min Rain = 0
KCA1 140844Z 10000KT 17/15 A3011 RMK A01 T01650151  RH  091%=      5-min Rain = 0
KCA1 140845Z 35001KT 17/15 A3012 RMK A01 T01650152  RH  092%=      5-min Rain = 0
KCA1 140846Z 34003KT 17/15 A3012 RMK A01 T01650152  RH  092%=      5-min Rain = 0
KCA1 140847Z 33003KT 16/15 A3012 RMK A01 T01640152  RH  092%=      5-min Rain = 0
KCA1 140848Z 33003KT 16/15 A3012 RMK A01 T01640152  RH  093%=      5-min Rain = 0
KCA1 140849Z 33002KT 16/15 A3012 RMK A01 T01640152  RH  093%=      5-min Rain = 0
KCA1 140850Z 32000KT 16/15 A3011 RMK A01 T01640153  RH  093%=      5-min Rain = 0
KCA1 140851Z 19000KT 16/15 A3011 RMK A01 T01630152  RH  093%=      5-min Rain = 0
KCA1 140852Z 18000KT 16/15 A3011 RMK A01 T01640152  RH  093%=      5-min Rain = 0
KCA1 140853Z 18000KT 17/15 A3011 RMK A01 T01650153  RH  093%=      5-min Rain = 0
KCA1 140854Z 23000KT 17/15 A3011 RMK A01 T01650153  RH  092%=      5-min Rain = 0
KCA1 140855Z 27001KT 17/15 A3011 RMK A01 T01670153  RH  091%=      5-min Rain = 0
KCA1 140856Z 28003KT 17/15 A3012 RMK A01 T01680153  RH  091%=      5-min Rain = 0
KCA1 140857Z 29004KT 17/15 A3012 RMK A01 T01700154  RH  091%=      5-min Rain = 0
KCA1 140858Z 29004KT 17/16 A3012 RMK A01 T01700155  RH  091%=      5-min Rain = 0
KCA1 140859Z 29003KT 17/15 A3012 RMK A01 T01690154  RH  091%=      5-min Rain = 0
KCA1 140900Z 28003KT 17/15 A3012 RMK A01 T01690154  RH  091%=      5-min Rain = 0
KCA1 140901Z 28002KT 17/15 A3012 RMK A01 T01690154  RH  091%=      5-min Rain = 0
KCA1 140902Z 30003KT 17/16 A3012 RMK A01 T01700155  RH  091%=      5-min Rain = 0
KCA1 140903Z 33004KT 17/16 A3012 RMK A01 T01690155  RH  091%=      5-min Rain = 0
KCA1 140904Z 34005KT 17/16 A3013 RMK A01 T01700156  RH  092%=      5-min Rain = 0
KCA1 140905Z 33005KT 17/16 A3013 RMK A01 T01690157  RH  092%=      5-min Rain = 0
KCA1 140906Z 32003KT 17/16 A3013 RMK A01 T01690156  RH  092%=      5-min Rain = 0
KCA1 140907Z 32002KT 17/16 A3013 RMK A01 T01690156  RH  092%=      5-min Rain = 0
KCA1 140908Z 32002KT 17/16 A3013 RMK A01 T01690156  RH  092%=      5-min Rain = 0
KCA1 140909Z 33003KT 17/16 A3013 RMK A01 T01700156  RH  092%=      5-min Rain = 0
KCA1 140910Z 32004KT 17/16 A3013 RMK A01 T01700156  RH  092%=      5-min Rain = 0
KCA1 140911Z 32004KT 17/16 A3013 RMK A01 T01700157  RH  092%=      5-min Rain = 0
KCA1 140912Z 31004KT 17/16 A3013 RMK A01 T01700157  RH  092%=      5-min Rain = 0
KCA1 140913Z 30004KT 17/16 A3012 RMK A01 T01700157  RH  092%=      5-min Rain = 0
KCA1 140914Z 29004KT 17/16 A3012 RMK A01 T01700157  RH  092%=      5-min Rain = 0
KCA1 140915Z 29004KT 17/16 A3012 RMK A01 T01700157  RH  092%=      5-min Rain = 0
KCA1 140916Z 30004KT 17/16 A3013 RMK A01 T01700157  RH  092%=      5-min Rain = 0
KCA1 140917Z 29004KT 17/16 A3012 RMK A01 T01700157  RH  092%=      5-min Rain = 0
KCA1 140918Z 29004KT 17/16 A3012 RMK A01 T01700158  RH  092%=      5-min Rain = 0
KCA1 140919Z 29005KT 17/16 A3012 RMK A01 T01700158  RH  093%=      5-min Rain = 0
KCA1 140920Z 30005KT 17/16 A3012 RMK A01 T01700159  RH  093%=      5-min Rain = 0
KCA1 140921Z 30005KT 17/16 A3012 RMK A01 T01700159  RH  093%=      5-min Rain = 0
KCA1 140922Z 31006KT 17/16 A3013 RMK A01 T01700159  RH  093%=      5-min Rain = 0
KCA1 140923Z 31005KT 17/16 A3013 RMK A01 T01710159  RH  093%=      5-min Rain = 0
KCA1 140924Z 31005KT 17/16 A3013 RMK A01 T01710160  RH  093%=      5-min Rain = 0
KCA1 140925Z 30004KT 17/16 A3013 RMK A01 T01710160  RH  093%=      5-min Rain = 0
KCA1 140926Z 30004KT 17/16 A3013 RMK A01 T01720159  RH  092%=      5-min Rain = 0
KCA1 140927Z 30005KT 17/16 A3013 RMK A01 T01720159  RH  092%=      5-min Rain = 0
KCA1 140928Z 30006KT 17/16 A3012 RMK A01 T01730159  RH  092%=      5-min Rain = 0
KCA1 140929Z 30006KT 17/16 A3012 RMK A01 T01730159  RH  091%=      5-min Rain = 0
KCA1 140930Z 30005KT 17/16 A3012 RMK A01 T01730158  RH  091%=      5-min Rain = 0
KCA1 140931Z 29004KT 17/16 A3013 RMK A01 T01730158  RH  091%=      5-min Rain = 0
KCA1 140932Z 28002KT 17/16 A3013 RMK A01 T01730158  RH  090%=      5-min Rain = 0
KCA1 140933Z 28002KT 17/16 A3013 RMK A01 T01730158  RH  090%=      5-min Rain = 0
KCA1 140934Z 29002KT 17/16 A3013 RMK A01 T01730158  RH  090%=      5-min Rain = 0
KCA1 140935Z 31002KT 17/16 A3013 RMK A01 T01730157  RH  090%=      5-min Rain = 0
KCA1 140936Z 30001KT 17/16 A3014 RMK A01 T01740157  RH  090%=      5-min Rain = 0
KCA1 140937Z 26000KT 17/16 A3014 RMK A01 T01740157  RH  090%=      5-min Rain = 0
KCA1 140938Z 27001KT 17/16 A3014 RMK A01 T01740157  RH  090%=      5-min Rain = 0
KCA1 140939Z 27004KT 17/16 A3014 RMK A01 T01740158  RH  090%=      5-min Rain = 0
KCA1 140940Z 29009KT 18/16 A3015 RMK A01 T01750159  RH  091%=      5-min Rain = 0
KCA1 140941Z 29014KT 17/16 A3016 RMK A01 T01740159  RH  091%=      5-min Rain = 0
KCA1 140942Z 30014KT 18/16 A3017 RMK A01 T01750160  RH  091%=      5-min Rain = 0
KCA1 140943Z 30014KT 18/16 A3017 RMK A01 T01750159  RH  090%=      5-min Rain = 0
KCA1 140944Z 30013KT 18/16 A3017 RMK A01 T01760158  RH  089%=      5-min Rain = 0
KCA1 140945Z 30010KT 18/16 A3016 RMK A01 T01780156  RH  087%=      5-min Rain = 0
KCA1 140946Z 29004G9KT 18/16 A3015 RMK A01 T01790155  RH  086%=      5-min Rain = 0
KCA1 140947Z 24002KT 18/15 A3014 RMK A01 T01800154  RH  085%=      5-min Rain = 0
KCA1 140948Z 26003KT 18/15 A3013 RMK A01 T01800154  RH  084%=      5-min Rain = 0
KCA1 140949Z 27005KT 18/15 A3014 RMK A01 T01810154  RH  084%=      5-min Rain = 0
KCA1 140950Z 29010KT 18/16 A3016 RMK A01 T01810155  RH  085%=      5-min Rain = 0
KCA1 140951Z 30015KT 18/16 A3017 RMK A01 T01810156  RH  085%=      5-min Rain = 0
KCA1 140952Z 30017KT 18/16 A3017 RMK A01 T01810156  RH  085%=      5-min Rain = 0
KCA1 140953Z 30020KT 18/15 A3017 RMK A01 T01810154  RH  084%=      5-min Rain = 0
KCA1 140954Z 31018KT 18/15 A3017 RMK A01 T01830154  RH  083%=      5-min Rain = 0
KCA1 140955Z 32014G19KT 19/15 A3017 RMK A01 T01860153  RH  081%=      5-min Rain = 0
KCA1 140956Z 32008KT 19/15 A3016 RMK A01 T01870153  RH  081%=      5-min Rain = 0
KCA1 140957Z 32004KT 19/15 A3015 RMK A01 T01880153  RH  080%=      5-min Rain = 0
KCA1 140958Z 30002KT 19/15 A3014 RMK A01 T01880153  RH  080%=      5-min Rain = 0
KCA1 140959Z 29003KT 19/15 A3014 RMK A01 T01880153  RH  080%=      5-min Rain = 0
KCA1 141000Z 30003KT 19/15 A3014 RMK A01 T01880153  RH  080%=      5-min Rain = 0
KCA1 141001Z 30003KT 19/15 A3014 RMK A01 T01870153  RH  081%=      5-min Rain = 0
KCA1 141002Z 30008KT 19/15 A3015 RMK A01 T01870153  RH  081%=      5-min Rain = 0
KCA1 141003Z 30012KT 19/15 A3015 RMK A01 T01860153  RH  081%=      5-min Rain = 0
KCA1 141004Z 30013KT 19/15 A3016 RMK A01 T01860154  RH  081%=      5-min Rain = 0
KCA1 141005Z 30012KT 19/15 A3016 RMK A01 T01860153  RH  081%=      5-min Rain = 0
KCA1 141006Z 30010KT 19/15 A3015 RMK A01 T01870154  RH  081%=      5-min Rain = 0
KCA1 141007Z 30006KT 19/15 A3015 RMK A01 T01870153  RH  081%=      5-min Rain = 0
KCA1 141008Z 28004KT 19/15 A3014 RMK A01 T01870153  RH  081%=      5-min Rain = 0
KCA1 141009Z 29006KT 19/15 A3014 RMK A01 T01870154  RH  081%=      5-min Rain = 0
KCA1 141010Z 29008KT 19/15 A3014 RMK A01 T01870153  RH  081%=      5-min Rain = 0
KCA1 141011Z 29007KT 19/15 A3014 RMK A01 T01870153  RH  081%=      5-min Rain = 0
KCA1 141012Z 29006KT 19/15 A3014 RMK A01 T01870153  RH  081%=      5-min Rain = 0
KCA1 141013Z 29006KT 19/15 A3014 RMK A01 T01870154  RH  081%=      5-min Rain = 0
KCA1 141014Z 30007KT 19/15 A3014 RMK A01 T01870154  RH  081%=      5-min Rain = 0
KCA1 141015Z 31009KT 19/15 A3015 RMK A01 T01870154  RH  081%=      5-min Rain = 0
KCA1 141016Z 31008KT 19/15 A3015 RMK A01 T01870154  RH  081%=      5-min Rain = 0
KCA1 141017Z 32008KT 19/15 A3014 RMK A01 T01870154  RH  081%=      5-min Rain = 0
KCA1 141018Z 32008KT 19/15 A3015 RMK A01 T01870154  RH  081%=      5-min Rain = 0
KCA1 141019Z 32009KT 19/15 A3015 RMK A01 T01880154  RH  081%=      5-min Rain = 0
KCA1 141020Z 31010KT 19/16 A3015 RMK A01 T01880155  RH  081%=      5-min Rain = 0
KCA1 141021Z 31012KT 19/15 A3016 RMK A01 T01880154  RH  081%=      5-min Rain = 0
KCA1 141022Z 32009KT 19/15 A3016 RMK A01 T01890154  RH  080%=      5-min Rain = 0
KCA1 141023Z 32009KT 19/16 A3016 RMK A01 T01890155  RH  080%=      5-min Rain = 0
KCA1 141024Z 33012KT 19/15 A3016 RMK A01 T01890154  RH  080%=      5-min Rain = 0
KCA1 141025Z 33011KT 19/15 A3016 RMK A01 T01900153  RH  079%=      5-min Rain = 0
KCA1 141026Z 32011KT 19/15 A3016 RMK A01 T01900153  RH  079%=      5-min Rain = 0
KCA1 141027Z 33011KT 19/15 A3016 RMK A01 T01900153  RH  079%=      5-min Rain = 0
KCA1 141028Z 34009KT 19/15 A3016 RMK A01 T01910153  RH  079%=      5-min Rain = 0
KCA1 141029Z 35011KT 19/15 A3016 RMK A01 T01910153  RH  079%=      5-min Rain = 0
KCA1 141030Z 00011KT 19/15 A3016 RMK A01 T01910153  RH  078%=      5-min Rain = 0
KCA1 141031Z 36012KT 19/15 A3016 RMK A01 T01910152  RH  078%=      5-min Rain = 0
KCA1 141032Z 36012KT 19/15 A3016 RMK A01 T01910152  RH  078%=      5-min Rain = 0
KCA1 141033Z 35010KT 19/15 A3016 RMK A01 T01910152  RH  078%=      5-min Rain = 0
KCA1 141034Z 35009KT 19/15 A3016 RMK A01 T01920151  RH  077%=      5-min Rain = 0
KCA1 141035Z 36007KT 19/15 A3016 RMK A01 T01920152  RH  077%=      5-min Rain = 0
KCA1 141036Z 36009KT 19/15 A3016 RMK A01 T01930151  RH  077%=      5-min Rain = 0
KCA1 141037Z 01013KT 19/15 A3016 RMK A01 T01930152  RH  077%=      5-min Rain = 0
KCA1 141038Z 00013KT 19/15 A3017 RMK A01 T01930151  RH  077%=      5-min Rain = 0
KCA1 141039Z 00010KT 19/15 A3017 RMK A01 T01940151  RH  076%=      5-min Rain = 0
KCA1 141040Z 01009KT 19/15 A3017 RMK A01 T01940152  RH  076%=      5-min Rain = 0
KCA1 141041Z 02008KT 19/15 A3016 RMK A01 T01940152  RH  076%=      5-min Rain = 0
KCA1 141042Z 02008KT 19/15 A3016 RMK A01 T01940152  RH  076%=      5-min Rain = 0
KCA1 141043Z 02008KT 19/15 A3016 RMK A01 T01940152  RH  076%=      5-min Rain = 0
KCA1 141044Z 02009KT 19/15 A3016 RMK A01 T01940152  RH  077%=      5-min Rain = 0
KCA1 141045Z 02007KT 19/15 A3016 RMK A01 T01930151  RH  077%=      5-min Rain = 0
KCA1 141046Z 36005KT 19/15 A3016 RMK A01 T01930152  RH  077%=      5-min Rain = 0
KCA1 141047Z 27004KT 19/15 A3016 RMK A01 T01940153  RH  077%=      5-min Rain = 0
KCA1 141048Z 24006KT 19/15 A3016 RMK A01 T01930154  RH  078%=      5-min Rain = 0
KCA1 141049Z 24005KT 19/15 A3016 RMK A01 T01920153  RH  078%=      5-min Rain = 0
KCA1 141050Z 25007KT 19/15 A3016 RMK A01 T01910154  RH  079%=      5-min Rain = 0
KCA1 141051Z 26007KT 19/15 A3016 RMK A01 T01900154  RH  080%=      5-min Rain = 0
KCA1 141052Z 26004KT 19/15 A3016 RMK A01 T01890153  RH  080%=      5-min Rain = 0
KCA1 141053Z 24004KT 19/15 A3016 RMK A01 T01890153  RH  079%=      5-min Rain = 0
KCA1 141054Z 23006KT 19/15 A3015 RMK A01 T01890154  RH  080%=      5-min Rain = 0
KCA1 141055Z 23008KT 19/15 A3016 RMK A01 T01890154  RH  080%=      5-min Rain = 0
KCA1 141056Z 24009KT 19/16 A3016 RMK A01 T01880155  RH  081%=      5-min Rain = 0
KCA1 141057Z 24007KT 19/16 A3016 RMK A01 T01870155  RH  082%=      5-min Rain = 0
KCA1 141058Z 24005KT 19/16 A3016 RMK A01 T01860155  RH  082%=      5-min Rain = 0
KCA1 141059Z 24004KT 19/16 A3016 RMK A01 T01860155  RH  082%=      5-min Rain = 0
KCA1 141100Z 24003KT 19/16 A3016 RMK A01 T01850155  RH  082%=      5-min Rain = 0
KCA1 141101Z 25004KT 19/16 A3016 RMK A01 T01850155  RH  082%=      5-min Rain = 0
KCA1 141102Z 25005KT 19/16 A3015 RMK A01 T01850156  RH  083%=      5-min Rain = 0
KCA1 141103Z 25006KT 19/16 A3015 RMK A01 T01850155  RH  083%=      5-min Rain = 0
KCA1 141104Z 25004KT 19/16 A3015 RMK A01 T01850155  RH  082%=      5-min Rain = 0
KCA1 141105Z 25003KT 19/16 A3015 RMK A01 T01850155  RH  083%=      5-min Rain = 0
KCA1 141106Z 26002KT 19/16 A3015 RMK A01 T01850155  RH  083%=      5-min Rain = 0
KCA1 141107Z 25003KT 19/16 A3016 RMK A01 T01850155  RH  083%=      5-min Rain = 0
KCA1 141108Z 24005KT 19/16 A3015 RMK A01 T01850155  RH  083%=      5-min Rain = 0
KCA1 141109Z 24005KT 19/16 A3015 RMK A01 T01850156  RH  083%=      5-min Rain = 0
KCA1 141110Z 23005KT 19/16 A3015 RMK A01 T01850156  RH  083%=      5-min Rain = 0
KCA1 141111Z 23005KT 18/16 A3015 RMK A01 T01840156  RH  083%=      5-min Rain = 0
KCA1 141112Z 23005KT 18/16 A3015 RMK A01 T01840156  RH  084%=      5-min Rain = 0
KCA1 141113Z 23004KT 18/16 A3015 RMK A01 T01840156  RH  084%=      5-min Rain = 0
KCA1 141114Z 24004KT 18/16 A3015 RMK A01 T01830156  RH  084%=      5-min Rain = 0
KCA1 141115Z 23004KT 18/16 A3015 RMK A01 T01840156  RH  084%=      5-min Rain = 0
KCA1 141116Z 23005KT 18/16 A3015 RMK A01 T01840157  RH  084%=      5-min Rain = 0
KCA1 141117Z 22005KT 18/16 A3015 RMK A01 T01830156  RH  084%=      5-min Rain = 0
KCA1 141118Z 22006KT 18/16 A3015 RMK A01 T01840157  RH  085%=      5-min Rain = 0
KCA1 141119Z 21005KT 18/16 A3015 RMK A01 T01830157  RH  085%=      5-min Rain = 0
KCA1 141120Z 20005KT 18/16 A3015 RMK A01 T01830157  RH  085%=      5-min Rain = 0
KCA1 141121Z 20006KT 18/16 A3015 RMK A01 T01830158  RH  085%=      5-min Rain = 0
KCA1 141122Z 20005KT 18/16 A3015 RMK A01 T01830158  RH  085%=      5-min Rain = 0
KCA1 141123Z 21005KT 18/16 A3015 RMK A01 T01830157  RH  085%=      5-min Rain = 0
KCA1 141124Z 21006KT 18/16 A3014 RMK A01 T01830157  RH  085%=      5-min Rain = 0
KCA1 141125Z 20006KT 18/16 A3014 RMK A01 T01830157  RH  085%=      5-min Rain = 0
KCA1 141126Z 20006KT 18/16 A3014 RMK A01 T01830158  RH  085%=      5-min Rain = 0
KCA1 141127Z 19005KT 18/16 A3014 RMK A01 T01830157  RH  085%=      5-min Rain = 0
KCA1 141128Z 20005KT 18/16 A3014 RMK A01 T01830158  RH  085%=      5-min Rain = 0
KCA1 141129Z 20004KT 18/16 A3014 RMK A01 T01830158  RH  085%=      5-min Rain = 0
KCA1 141130Z 21005KT 18/16 A3014 RMK A01 T01830158  RH  085%=      5-min Rain = 0
KCA1 141131Z 21005KT 18/16 A3014 RMK A01 T01820157  RH  085%=      5-min Rain = 0
KCA1 141132Z 21005KT 18/16 A3014 RMK A01 T01820157  RH  085%=      5-min Rain = 0
KCA1 141133Z 22005KT 18/16 A3015 RMK A01 T01820158  RH  086%=      5-min Rain = 0
KCA1 141134Z 23006KT 18/16 A3015 RMK A01 T01820158  RH  086%=      5-min Rain = 0
KCA1 141135Z 23006KT 18/16 A3015 RMK A01 T01830158  RH  086%=      5-min Rain = 0
KCA1 141136Z 24006KT 18/16 A3015 RMK A01 T01820158  RH  085%=      5-min Rain = 0
KCA1 141137Z 24006KT 18/16 A3015 RMK A01 T01820157  RH  086%=      5-min Rain = 0
KCA1 141138Z 25005KT 18/16 A3015 RMK A01 T01820157  RH  086%=      5-min Rain = 0
KCA1 141139Z 24005KT 18/16 A3015 RMK A01 T01810157  RH  086%=      5-min Rain = 0
KCA1 141140Z 24005KT 18/16 A3015 RMK A01 T01810157  RH  086%=      5-min Rain = 0
KCA1 141141Z 24004KT 18/16 A3015 RMK A01 T01810157  RH  086%=      5-min Rain = 0
KCA1 141142Z 23004KT 18/16 A3015 RMK A01 T01810157  RH  086%=      5-min Rain = 0
KCA1 141143Z 23004KT 18/16 A3014 RMK A01 T01810157  RH  086%=      5-min Rain = 0
KCA1 141144Z 22005KT 18/16 A3014 RMK A01 T01810157  RH  086%=      5-min Rain = 0
KCA1 141145Z 23006KT 18/16 A3014 RMK A01 T01810157  RH  086%=      5-min Rain = 0
KCA1 141146Z 22007KT 18/16 A3014 RMK A01 T01800156  RH  086%=      5-min Rain = 0
KCA1 141147Z 22007KT 18/16 A3014 RMK A01 T01810155  RH  085%=      5-min Rain = 0
KCA1 141148Z 22006KT 18/16 A3014 RMK A01 T01810155  RH  085%=      5-min Rain = 0
KCA1 141149Z 21005KT 18/16 A3014 RMK A01 T01810155  RH  085%=      5-min Rain = 0
KCA1 141150Z 21004KT 18/16 A3014 RMK A01 T01810155  RH  085%=      5-min Rain = 0
KCA1 141151Z 21003KT 18/16 A3014 RMK A01 T01810155  RH  085%=      5-min Rain = 0
KCA1 141152Z 21003KT 18/16 A3014 RMK A01 T01810155  RH  085%=      5-min Rain = 0
KCA1 141153Z 22003KT 18/16 A3014 RMK A01 T01810155  RH  085%=      5-min Rain = 0
KCA1 141154Z 22002KT 18/15 A3014 RMK A01 T01810154  RH  084%=      5-min Rain = 0
KCA1 141155Z 22002KT 18/15 A3014 RMK A01 T01810154  RH  084%=      5-min Rain = 0
KCA1 141156Z 21003KT 18/15 A3014 RMK A01 T01810154  RH  084%=      5-min Rain = 0
KCA1 141157Z 21003KT 18/15 A3014 RMK A01 T01810154  RH  084%=      5-min Rain = 0
KCA1 141158Z 20003KT 18/15 A3014 RMK A01 T01810154  RH  084%=      5-min Rain = 0
KCA1 141159Z 21004KT 18/15 A3014 RMK A01 T01810153  RH  084%=      5-min Rain = 0
KCA1 141200Z 21005KT 18/15 A3014 RMK A01 T01810153  RH  084%=      5-min Rain = 0
KCA1 141201Z 20005KT 18/15 A3014 RMK A01 T01810154  RH  084%=      5-min Rain = 0
KCA1 141202Z 20005KT 18/15 A3014 RMK A01 T01810154  RH  084%=      5-min Rain = 0
KCA1 141203Z 20004KT 18/15 A3014 RMK A01 T01810153  RH  084%=      5-min Rain = 0
KCA1 141204Z 19005KT 18/15 A3014 RMK A01 T01810154  RH  084%=      5-min Rain = 0
KCA1 141205Z 18004KT 18/15 A3014 RMK A01 T01810154  RH  084%=      5-min Rain = 0
KCA1 141206Z 18005KT 18/15 A3014 RMK A01 T01810154  RH  084%=      5-min Rain = 0
KCA1 141207Z 18005KT 18/16 A3014 RMK A01 T01810155  RH  085%=      5-min Rain = 0
KCA1 141208Z 18004KT 18/16 A3014 RMK A01 T01810155  RH  085%=      5-min Rain = 0
KCA1 141209Z 18005KT 18/16 A3014 RMK A01 T01810155  RH  085%=      5-min Rain = 0
KCA1 141210Z 18004KT 18/16 A3014 RMK A01 T01810155  RH  084%=      5-min Rain = 0
KCA1 141211Z 17004KT 18/16 A3014 RMK A01 T01820155  RH  084%=      5-min Rain = 0
KCA1 141212Z 17004KT 18/16 A3014 RMK A01 T01820155  RH  085%=      5-min Rain = 0
KCA1 141213Z 16004KT 18/16 A3014 RMK A01 T01820156  RH  085%=      5-min Rain = 0
KCA1 141214Z 17004KT 18/16 A3014 RMK A01 T01820155  RH  085%=      5-min Rain = 0
KCA1 141215Z 17004KT 18/16 A3014 RMK A01 T01820155  RH  085%=      5-min Rain = 0
KCA1 141216Z 17003KT 18/16 A3014 RMK A01 T01820155  RH  084%=      5-min Rain = 0
KCA1 141217Z 17003KT 18/16 A3015 RMK A01 T01820155  RH  084%=      5-min Rain = 0
KCA1 141218Z 18003KT 18/15 A3015 RMK A01 T01830154  RH  084%=      5-min Rain = 0
KCA1 141219Z 19002KT 18/15 A3015 RMK A01 T01830153  RH  083%=      5-min Rain = 0
KCA1 141220Z 18002KT 18/15 A3015 RMK A01 T01840154  RH  082%=      5-min Rain = 0
KCA1 141221Z 16002KT 19/16 A3015 RMK A01 T01850155  RH  083%=      5-min Rain = 0
KCA1 141222Z 13002KT 19/16 A3015 RMK A01 T01850156  RH  083%=      5-min Rain = 0
KCA1 141223Z 14002KT 19/16 A3015 RMK A01 T01860156  RH  083%=      5-min Rain = 0
KCA1 141224Z 14002KT 19/16 A3015 RMK A01 T01860155  RH  082%=      5-min Rain = 0
KCA1 141225Z 13003KT 19/16 A3015 RMK A01 T01870156  RH  082%=      5-min Rain = 0
KCA1 141226Z 12002KT 19/15 A3016 RMK A01 T01880154  RH  080%=      5-min Rain = 0
KCA1 141227Z 14002KT 19/16 A3016 RMK A01 T01890155  RH  081%=      5-min Rain = 0
KCA1 141228Z 16001KT 19/16 A3016 RMK A01 T01900155  RH  080%=      5-min Rain = 0
KCA1 141229Z 18002KT 19/16 A3016 RMK A01 T01900155  RH  080%=      5-min Rain = 0
KCA1 141230Z 20002KT 19/16 A3016 RMK A01 T01910155  RH  080%=      5-min Rain = 0
KCA1 141231Z 20002KT 19/15 A3016 RMK A01 T01920154  RH  079%=      5-min Rain = 0
KCA1 141232Z 24000KT 19/16 A3016 RMK A01 T01930157  RH  080%=      5-min Rain = 0
KCA1 141233Z 30002KT 19/16 A3016 RMK A01 T01930159  RH  081%=      5-min Rain = 0
KCA1 141234Z 29003KT 19/16 A3016 RMK A01 T01930160  RH  081%=      5-min Rain = 0
KCA1 141235Z 30004KT 19/16 A3016 RMK A01 T01920160  RH  081%=      5-min Rain = 0
KCA1 141236Z 30005KT 19/16 A3016 RMK A01 T01920160  RH  081%=      5-min Rain = 0
KCA1 141237Z 30006KT 19/16 A3017 RMK A01 T01920160  RH  081%=      5-min Rain = 0
KCA1 141238Z 30006KT 19/16 A3017 RMK A01 T01920160  RH  081%=      5-min Rain = 0
KCA1 141239Z 30006KT 19/16 A3017 RMK A01 T01920159  RH  081%=      5-min Rain = 0
KCA1 141240Z 29005KT 19/16 A3017 RMK A01 T01930158  RH  080%=      5-min Rain = 0
KCA1 141241Z 29005KT 19/16 A3017 RMK A01 T01940159  RH  080%=      5-min Rain = 0
KCA1 141242Z 30005KT 19/16 A3017 RMK A01 T01940159  RH  080%=      5-min Rain = 0
KCA1 141243Z 30006KT 19/16 A3017 RMK A01 T01940160  RH  080%=      5-min Rain = 0
KCA1 141244Z 31007KT 20/16 A3018 RMK A01 T01950161  RH  080%=      5-min Rain = 0
KCA1 141245Z 32009KT 20/16 A3018 RMK A01 T01970161  RH  080%=      5-min Rain = 0
KCA1 141246Z 33009KT 20/16 A3018 RMK A01 T01970161  RH  080%=      5-min Rain = 0
KCA1 141247Z 33007KT 20/16 A3019 RMK A01 T01980161  RH  079%=      5-min Rain = 0
KCA1 141248Z 33008KT 20/16 A3019 RMK A01 T01970161  RH  080%=      5-min Rain = 0
KCA1 141249Z 33010KT 20/16 A3019 RMK A01 T01970160  RH  079%=      5-min Rain = 0
KCA1 141250Z 33012KT 20/16 A302 RMK A01 T01970160  RH  079%=      5-min Rain = 0
KCA1 141251Z 33011KT 20/16 A302 RMK A01 T01970159  RH  079%=      5-min Rain = 0
KCA1 141252Z 33013KT 20/16 A302 RMK A01 T01980159  RH  078%=      5-min Rain = 0
KCA1 141253Z 33011KT 20/16 A302 RMK A01 T01980158  RH  077%=      5-min Rain = 0
KCA1 141254Z 33010KT 20/16 A302 RMK A01 T01980158  RH  077%=      5-min Rain = 0
KCA1 141255Z 32010KT 20/16 A302 RMK A01 T01990158  RH  077%=      5-min Rain = 0
KCA1 141256Z 32009KT 20/16 A302 RMK A01 T02000156  RH  076%=      5-min Rain = 0
KCA1 141257Z 31008KT 20/16 A302 RMK A01 T02000156  RH  076%=      5-min Rain = 0
KCA1 141258Z 30007KT 20/16 A302 RMK A01 T02010157  RH  076%=      5-min Rain = 0
KCA1 141259Z 30007KT 20/16 A302 RMK A01 T02010157  RH  076%=      5-min Rain = 0
KCA1 141300Z 30007KT 20/16 A302 RMK A01 T02020157  RH  075%=      5-min Rain = 0
KCA1 141301Z 31006KT 20/16 A302 RMK A01 T02020156  RH  075%=      5-min Rain = 0
KCA1 141302Z 31005KT 20/16 A302 RMK A01 T02030157  RH  075%=      5-min Rain = 0
KCA1 141303Z 32006KT 20/16 A302 RMK A01 T02040158  RH  075%=      5-min Rain = 0
KCA1 141304Z 31006KT 21/16 A3021 RMK A01 T02050158  RH  074%=      5-min Rain = 0
KCA1 141305Z 31006KT 21/16 A3021 RMK A01 T02050158  RH  074%=      5-min Rain = 0
KCA1 141306Z 31007KT 21/16 A3021 RMK A01 T02060157  RH  073%=      5-min Rain = 0
KCA1 141307Z 30005KT 21/16 A302 RMK A01 T02060157  RH  073%=      5-min Rain = 0
KCA1 141308Z 29004KT 21/16 A302 RMK A01 T02060156  RH  073%=      5-min Rain = 0
KCA1 141309Z 30005KT 21/16 A302 RMK A01 T02070156  RH  072%=      5-min Rain = 0
KCA1 141310Z 30005KT 21/16 A302 RMK A01 T02070156  RH  072%=      5-min Rain = 0
KCA1 141311Z 30005KT 21/16 A302 RMK A01 T02080156  RH  072%=      5-min Rain = 0
KCA1 141312Z 30005KT 21/16 A302 RMK A01 T02090155  RH  071%=      5-min Rain = 0
KCA1 141313Z 30005KT 21/16 A302 RMK A01 T02110157  RH  071%=      5-min Rain = 0
KCA1 141314Z 29005KT 21/16 A302 RMK A01 T02120157  RH  071%=      5-min Rain = 0
KCA1 141315Z 29005KT 21/16 A302 RMK A01 T02130155  RH  070%=      5-min Rain = 0
KCA1 141316Z 28007KT 22/15 A302 RMK A01 T02150154  RH  068%=      5-min Rain = 0
KCA1 141317Z 29006KT 22/15 A302 RMK A01 T02150154  RH  068%=      5-min Rain = 0
KCA1 141318Z 27005KT 22/16 A302 RMK A01 T02160156  RH  068%=      5-min Rain = 0
KCA1 141319Z 28004KT 22/16 A302 RMK A01 T02170155  RH  068%=      5-min Rain = 0
KCA1 141320Z 29005KT 22/16 A302 RMK A01 T02180156  RH  068%=      5-min Rain = 0
KCA1 141321Z 30005KT 22/16 A302 RMK A01 T02190156  RH  068%=      5-min Rain = 0
KCA1 141322Z 30005KT 22/16 A302 RMK A01 T02200157  RH  068%=      5-min Rain = 0
KCA1 141323Z 29005KT 22/16 A302 RMK A01 T02210157  RH  067%=      5-min Rain = 0
KCA1 141324Z 30005KT 22/16 A302 RMK A01 T02220157  RH  067%=      5-min Rain = 0
KCA1 141325Z 29006KT 22/16 A302 RMK A01 T02220159  RH  067%=      5-min Rain = 0
KCA1 141326Z 29008KT 22/16 A3021 RMK A01 T02230157  RH  066%=      5-min Rain = 0
KCA1 141327Z 31008KT 22/16 A3021 RMK A01 T02240157  RH  066%=      5-min Rain = 0
KCA1 141328Z 32009KT 23/16 A3021 RMK A01 T02250159  RH  066%=      5-min Rain = 0
KCA1 141329Z 31007KT 23/16 A3021 RMK A01 T02260157  RH  065%=      5-min Rain = 0
KCA1 141330Z 31008KT 23/16 A3021 RMK A01 T02260157  RH  065%=      5-min Rain = 0
KCA1 141331Z 32008KT 23/16 A3021 RMK A01 T02260158  RH  065%=      5-min Rain = 0
KCA1 141332Z 32010KT 23/16 A3021 RMK A01 T02270157  RH  065%=      5-min Rain = 0
KCA1 141333Z 32008KT 23/15 A3021 RMK A01 T02280154  RH  063%=      5-min Rain = 0
KCA1 141334Z 32009KT 23/15 A3021 RMK A01 T02280154  RH  063%=      5-min Rain = 0
KCA1 141335Z 32009KT 23/15 A3021 RMK A01 T02290154  RH  062%=      5-min Rain = 0
KCA1 141336Z 33008KT 23/16 A3021 RMK A01 T02300155  RH  063%=      5-min Rain = 0
KCA1 141337Z 34007KT 23/16 A3021 RMK A01 T02310158  RH  063%=      5-min Rain = 0
KCA1 141338Z 33009KT 23/16 A3021 RMK A01 T02320157  RH  063%=      5-min Rain = 0
KCA1 141339Z 33009KT 23/16 A3021 RMK A01 T02320155  RH  062%=      5-min Rain = 0
KCA1 141340Z 33008KT 23/16 A3021 RMK A01 T02320156  RH  062%=      5-min Rain = 0
KCA1 141341Z 33009KT 23/16 A3021 RMK A01 T02320156  RH  062%=      5-min Rain = 0
KCA1 141342Z 33009KT 23/16 A3021 RMK A01 T02320155  RH  062%=      5-min Rain = 0
KCA1 141343Z 35007KT 23/16 A3021 RMK A01 T02320155  RH  062%=      5-min Rain = 0
KCA1 141344Z 35006KT 23/16 A3021 RMK A01 T02320155  RH  062%=      5-min Rain = 0
KCA1 141345Z 34005KT 23/16 A3021 RMK A01 T02320156  RH  062%=      5-min Rain = 0
KCA1 141346Z 33006KT 23/15 A3021 RMK A01 T02320154  RH  062%=      5-min Rain = 0
KCA1 141347Z 33005KT 23/15 A3021 RMK A01 T02320154  RH  062%=      5-min Rain = 0
KCA1 141348Z 34007KT 23/15 A3021 RMK A01 T02320153  RH  061%=      5-min Rain = 0
KCA1 141349Z 32005KT 23/15 A3021 RMK A01 T02320153  RH  061%=      5-min Rain = 0
KCA1 141350Z 34006KT 23/15 A3021 RMK A01 T02320153  RH  061%=      5-min Rain = 0
KCA1 141351Z 33005KT 23/15 A3021 RMK A01 T02320154  RH  061%=      5-min Rain = 0
KCA1 141352Z 33005KT 23/15 A3021 RMK A01 T02320154  RH  061%=      5-min Rain = 0
KCA1 141353Z 32004KT 23/16 A3021 RMK A01 T02330155  RH  061%=      5-min Rain = 0
KCA1 141354Z 33005KT 23/16 A3021 RMK A01 T02330156  RH  062%=      5-min Rain = 0
KCA1 141355Z 33006KT 23/16 A3021 RMK A01 T02340156  RH  062%=      5-min Rain = 0
KCA1 141356Z 34006KT 23/16 A3021 RMK A01 T02340155  RH  061%=      5-min Rain = 0
KCA1 141357Z 33006KT 23/15 A3021 RMK A01 T02340154  RH  061%=      5-min Rain = 0
KCA1 141358Z 34007KT 23/15 A3021 RMK A01 T02340153  RH  060%=      5-min Rain = 0
KCA1 141359Z 35008KT 24/15 A3021 RMK A01 T02350153  RH  060%=      5-min Rain = 0
KCA1 141400Z 35008KT 24/15 A3021 RMK A01 T02350152  RH  060%=      5-min Rain = 0
KCA1 141401Z 35009KT 24/15 A3021 RMK A01 T02360152  RH  059%=      5-min Rain = 0
KCA1 141402Z 35009KT 24/15 A3021 RMK A01 T02360151  RH  059%=      5-min Rain = 0
KCA1 141403Z 35010KT 24/15 A3021 RMK A01 T02370151  RH  059%=      5-min Rain = 0
KCA1 141404Z 35010KT 24/15 A3021 RMK A01 T02370150  RH  058%=      5-min Rain = 0
KCA1 141405Z 36010KT 24/15 A3021 RMK A01 T02380150  RH  058%=      5-min Rain = 0
KCA1 141406Z 00009KT 24/15 A3021 RMK A01 T02380149  RH  057%=      5-min Rain = 0
KCA1 141407Z 00008KT 24/15 A3021 RMK A01 T02390150  RH  057%=      5-min Rain = 0
KCA1 141408Z 01008KT 24/15 A302 RMK A01 T02390151  RH  058%=      5-min Rain = 0
KCA1 141409Z 00008KT 24/15 A302 RMK A01 T02400150  RH  057%=      5-min Rain = 0
KCA1 141410Z 01006KT 24/15 A302 RMK A01 T02400149  RH  057%=      5-min Rain = 0
KCA1 141411Z 36008KT 24/15 A302 RMK A01 T02410149  RH  057%=      5-min Rain = 0
KCA1 141412Z 00010KT 24/15 A302 RMK A01 T02410147  RH  056%=      5-min Rain = 0
KCA1 141413Z 36008KT 24/15 A302 RMK A01 T02420146  RH  055%=      5-min Rain = 0
KCA1 141414Z 36007KT 24/15 A302 RMK A01 T02420148  RH  056%=      5-min Rain = 0
KCA1 141415Z 36009KT 24/15 A302 RMK A01 T02430148  RH  055%=      5-min Rain = 0
KCA1 141416Z 35008KT 24/15 A302 RMK A01 T02430146  RH  055%=      5-min Rain = 0
KCA1 141417Z 00009KT 24/15 A302 RMK A01 T02430147  RH  055%=      5-min Rain = 0
KCA1 141418Z 36008KT 24/15 A302 RMK A01 T02440147  RH  055%=      5-min Rain = 0
KCA1 141419Z 00009KT 24/15 A302 RMK A01 T02430146  RH  054%=      5-min Rain = 0
KCA1 141420Z 00007KT 24/15 A302 RMK A01 T02440146  RH  054%=      5-min Rain = 0
KCA1 141421Z 01006KT 24/15 A3019 RMK A01 T02440148  RH  055%=      5-min Rain = 0
KCA1 141422Z 01007KT 25/15 A3019 RMK A01 T02450148  RH  055%=      5-min Rain = 0
KCA1 141423Z 01007KT 25/15 A3019 RMK A01 T02450148  RH  055%=      5-min Rain = 0
KCA1 141424Z 00007KT 25/15 A3019 RMK A01 T02450147  RH  054%=      5-min Rain = 0
KCA1 141425Z 01008KT 25/15 A3019 RMK A01 T02450147  RH  054%=      5-min Rain = 0
KCA1 141426Z 00008KT 25/15 A3019 RMK A01 T02450146  RH  054%=      5-min Rain = 0
KCA1 141427Z 35006KT 25/15 A3019 RMK A01 T02460148  RH  054%=      5-min Rain = 0
KCA1 141428Z 35007KT 25/15 A3019 RMK A01 T02470147  RH  054%=      5-min Rain = 0
KCA1 141429Z 36008KT 25/15 A3019 RMK A01 T02470146  RH  054%=      5-min Rain = 0
KCA1 141430Z 36008KT 25/15 A3019 RMK A01 T02480146  RH  053%=      5-min Rain = 0
KCA1 141431Z 00007KT 25/15 A3019 RMK A01 T02480146  RH  053%=      5-min Rain = 0
KCA1 141432Z 00007KT 25/15 A3019 RMK A01 T02480147  RH  053%=      5-min Rain = 0
KCA1 141433Z 36007KT 25/15 A3019 RMK A01 T02490148  RH  053%=      5-min Rain = 0
KCA1 141434Z 01007KT 25/15 A3019 RMK A01 T02500147  RH  053%=      5-min Rain = 0
KCA1 141435Z 00006KT 25/15 A3019 RMK A01 T02500146  RH  053%=      5-min Rain = 0
KCA1 141436Z 00007KT 25/15 A3018 RMK A01 T02510149  RH  053%=      5-min Rain = 0
KCA1 141437Z 36008KT 25/15 A3018 RMK A01 T02510148  RH  053%=      5-min Rain = 0
KCA1 141438Z 00007KT 25/15 A3018 RMK A01 T02520149  RH  053%=      5-min Rain = 0
KCA1 141439Z 00009KT 25/15 A3018 RMK A01 T02530149  RH  052%=      5-min Rain = 0
KCA1 141440Z 01010KT 25/15 A3018 RMK A01 T02540148  RH  052%=      5-min Rain = 0
KCA1 141441Z 01011KT 25/15 A3018 RMK A01 T02540147  RH  051%=      5-min Rain = 0
KCA1 141442Z 01011KT 25/15 A3018 RMK A01 T02540148  RH  052%=      5-min Rain = 0
KCA1 141443Z 36013KT 25/15 A3019 RMK A01 T02540149  RH  052%=      5-min Rain = 0
KCA1 141444Z 00013KT 25/15 A3019 RMK A01 T02540148  RH  052%=      5-min Rain = 0
KCA1 141445Z 00014KT 25/15 A3019 RMK A01 T02540147  RH  052%=      5-min Rain = 0
KCA1 141446Z 01012KT 25/15 A3019 RMK A01 T02540147  RH  051%=      5-min Rain = 0
KCA1 141447Z 02011G16KT 25/15 A3019 RMK A01 T02530148  RH  052%=      5-min Rain = 0
KCA1 141448Z 01015KT 25/15 A3019 RMK A01 T02530149  RH  052%=      5-min Rain = 0
KCA1 141449Z 36013KT 25/15 A3019 RMK A01 T02530148  RH  052%=      5-min Rain = 0
KCA1 141450Z 01014KT 25/15 A3019 RMK A01 T02520148  RH  052%=      5-min Rain = 0
KCA1 141451Z 01014KT 25/15 A3019 RMK A01 T02510147  RH  053%=      5-min Rain = 0
KCA1 141452Z 36014KT 25/15 A3019 RMK A01 T02490147  RH  053%=      5-min Rain = 0
KCA1 141453Z 00013KT 25/15 A302 RMK A01 T02480147  RH  053%=      5-min Rain = 0
KCA1 141454Z 36014KT 25/15 A302 RMK A01 T02480149  RH  054%=      5-min Rain = 0
KCA1 141455Z 00013KT 25/15 A302 RMK A01 T02480148  RH  054%=      5-min Rain = 0
KCA1 141456Z 00015KT 25/15 A302 RMK A01 T02470147  RH  054%=      5-min Rain = 0
KCA1 141457Z 00014KT 25/15 A302 RMK A01 T02460147  RH  054%=      5-min Rain = 0
KCA1 141458Z 00012KT 25/15 A302 RMK A01 T02450147  RH  054%=      5-min Rain = 0
KCA1 141459Z 36013KT 25/15 A302 RMK A01 T02450148  RH  055%=      5-min Rain = 0
KCA1 141500Z 35014KT 25/15 A302 RMK A01 T02450147  RH  055%=      5-min Rain = 0
KCA1 141501Z 35011KT 24/15 A302 RMK A01 T02440148  RH  055%=      5-min Rain = 0
KCA1 141502Z 35012KT 24/15 A302 RMK A01 T02440148  RH  055%=      5-min Rain = 0
KCA1 141503Z 01012KT 25/15 A302 RMK A01 T02450148  RH  055%=      5-min Rain = 0
KCA1 141504Z 01011KT 25/15 A302 RMK A01 T02450148  RH  055%=      5-min Rain = 0
KCA1 141505Z 00012KT 25/15 A302 RMK A01 T02450148  RH  055%=      5-min Rain = 0
KCA1 141506Z 01011KT 25/15 A302 RMK A01 T02460149  RH  055%=      5-min Rain = 0
KCA1 141507Z 01011KT 25/15 A302 RMK A01 T02460150  RH  055%=      5-min Rain = 0
KCA1 141508Z 00009KT 25/15 A302 RMK A01 T02470150  RH  055%=      5-min Rain = 0
KCA1 141509Z 00011KT 25/15 A302 RMK A01 T02470152  RH  055%=      5-min Rain = 0
KCA1 141510Z 00013KT 25/15 A302 RMK A01 T02480149  RH  054%=      5-min Rain = 0
KCA1 141511Z 01013KT 25/15 A3019 RMK A01 T02470148  RH  054%=      5-min Rain = 0
KCA1 141512Z 01013KT 25/15 A3019 RMK A01 T02470149  RH  054%=      5-min Rain = 0
KCA1 141513Z 00013KT 25/15 A3019 RMK A01 T02470149  RH  055%=      5-min Rain = 0
KCA1 141514Z 01011KT 25/15 A3019 RMK A01 T02470150  RH  055%=      5-min Rain = 0
KCA1 141515Z 01011KT 25/15 A302 RMK A01 T02480150  RH  054%=      5-min Rain = 0
KCA1 141516Z 00012KT 25/15 A302 RMK A01 T02510152  RH  054%=      5-min Rain = 0
KCA1 141517Z 00010KT 25/15 A302 RMK A01 T02530153  RH  054%=      5-min Rain = 0
KCA1 141518Z 01010KT 25/15 A3019 RMK A01 T02540152  RH  053%=      5-min Rain = 0
KCA1 141519Z 00010G15KT 26/15 A3019 RMK A01 T02550153  RH  053%=      5-min Rain = 0
KCA1 141520Z 35009KT 26/15 A3019 RMK A01 T02560153  RH  053%=      5-min Rain = 0
KCA1 141521Z 00013KT 26/15 A3019 RMK A01 T02580152  RH  052%=      5-min Rain = 0
KCA1 141522Z 01012KT 26/15 A3019 RMK A01 T02570151  RH  052%=      5-min Rain = 0
KCA1 141523Z 01011KT 26/15 A3019 RMK A01 T02560152  RH  052%=      5-min Rain = 0
KCA1 141524Z 01012KT 26/15 A3019 RMK A01 T02560152  RH  053%=      5-min Rain = 0
KCA1 141525Z 00013KT 26/15 A3019 RMK A01 T02560152  RH  053%=      5-min Rain = 0
KCA1 141526Z 36016KT 26/15 A3019 RMK A01 T02550150  RH  052%=      5-min Rain = 0
KCA1 141527Z 01014KT 25/15 A3019 RMK A01 T02540150  RH  052%=      5-min Rain = 0
KCA1 141528Z 01012KT 25/15 A3019 RMK A01 T02540150  RH  053%=      5-min Rain = 0
KCA1 141529Z 36012KT 25/15 A3019 RMK A01 T02530151  RH  053%=      5-min Rain = 0
KCA1 141530Z 01010KT 25/15 A3019 RMK A01 T02530152  RH  053%=      5-min Rain = 0
KCA1 141531Z 01010KT 25/15 A3019 RMK A01 T02530154  RH  054%=      5-min Rain = 0
KCA1 141532Z 01010KT 25/15 A3019 RMK A01 T02540153  RH  054%=      5-min Rain = 0
KCA1 141533Z 01012KT 26/15 A3019 RMK A01 T02550154  RH  053%=      5-min Rain = 0
KCA1 141534Z 01012KT 26/15 A3019 RMK A01 T02550153  RH  053%=      5-min Rain = 0
KCA1 141535Z 01013KT 26/15 A302 RMK A01 T02550152  RH  053%=      5-min Rain = 0
KCA1 141536Z 00012KT 25/15 A302 RMK A01 T02540152  RH  053%=      5-min Rain = 0
KCA1 141537Z 01014KT 25/15 A302 RMK A01 T02530151  RH  053%=      5-min Rain = 0
KCA1 141538Z 01012KT 25/15 A302 RMK A01 T02530151  RH  053%=      5-min Rain = 0
KCA1 141539Z 01012KT 25/15 A302 RMK A01 T02530151  RH  053%=      5-min Rain = 0
KCA1 141540Z 01014KT 25/15 A302 RMK A01 T02530151  RH  053%=      5-min Rain = 0
KCA1 141541Z 01013KT 25/15 A302 RMK A01 T02520150  RH  053%=      5-min Rain = 0
KCA1 141542Z 01010KT 25/15 A302 RMK A01 T02520151  RH  054%=      5-min Rain = 0
KCA1 141543Z 02012KT 25/15 A302 RMK A01 T02530152  RH  054%=      5-min Rain = 0
KCA1 141544Z 02011KT 25/15 A302 RMK A01 T02530151  RH  053%=      5-min Rain = 0
KCA1 141545Z 01013KT 25/15 A3019 RMK A01 T02540151  RH  053%=      5-min Rain = 0
KCA1 141546Z 01013KT 25/15 A3019 RMK A01 T02540150  RH  053%=      5-min Rain = 0
KCA1 141547Z 01011KT 25/15 A3019 RMK A01 T02540151  RH  053%=      5-min Rain = 0
KCA1 141548Z 01011KT 25/15 A3019 RMK A01 T02540153  RH  054%=      5-min Rain = 0
KCA1 141549Z 02009KT 26/15 A3019 RMK A01 T02550154  RH  053%=      5-min Rain = 0
KCA1 141550Z 01010KT 26/15 A3019 RMK A01 T02570154  RH  053%=      5-min Rain = 0
KCA1 141551Z 02010KT 26/15 A3019 RMK A01 T02570154  RH  053%=      5-min Rain = 0
KCA1 141552Z 02011KT 26/15 A3019 RMK A01 T02570154  RH  053%=      5-min Rain = 0
KCA1 141553Z 02008KT 26/15 A3019 RMK A01 T02570153  RH  052%=      5-min Rain = 0
KCA1 141554Z 03010KT 26/15 A3019 RMK A01 T02570153  RH  053%=      5-min Rain = 0
KCA1 141555Z 03014KT 26/15 A3019 RMK A01 T02570152  RH  052%=      5-min Rain = 0
KCA1 141556Z 03013KT 26/15 A3019 RMK A01 T02560151  RH  052%=      5-min Rain = 0
KCA1 141557Z 03012KT 26/15 A3019 RMK A01 T02550150  RH  052%=      5-min Rain = 0
KCA1 141558Z 02010KT 26/15 A3019 RMK A01 T02550151  RH  053%=      5-min Rain = 0
KCA1 141559Z 02009KT 25/15 A3019 RMK A01 T02540151  RH  053%=      5-min Rain = 0
KCA1 141600Z 02010KT 26/15 A3019 RMK A01 T02550153  RH  053%=      5-min Rain = 0
KCA1 141601Z 02010KT 26/15 A3019 RMK A01 T02560151  RH  052%=      5-min Rain = 0
KCA1 141602Z 02008KT 26/15 A3019 RMK A01 T02570151  RH  052%=      5-min Rain = 0
KCA1 141603Z 04006KT 26/15 A3019 RMK A01 T02570152  RH  052%=      5-min Rain = 0
KCA1 141604Z 03007KT 26/16 A3019 RMK A01 T02590155  RH  053%=      5-min Rain = 0
KCA1 141605Z 02009KT 26/15 A3019 RMK A01 T02600153  RH  052%=      5-min Rain = 0
KCA1 141606Z 03009KT 26/15 A3019 RMK A01 T02600153  RH  052%=      5-min Rain = 0
KCA1 141607Z 04008KT 26/15 A3019 RMK A01 T02600153  RH  052%=      5-min Rain = 0
KCA1 141608Z 04009KT 26/15 A3019 RMK A01 T02600153  RH  052%=      5-min Rain = 0
KCA1 141609Z 04007KT 26/15 A3019 RMK A01 T02600153  RH  052%=      5-min Rain = 0
KCA1 141610Z 04008KT 26/15 A3019 RMK A01 T02590152  RH  052%=      5-min Rain = 0
KCA1 141611Z 03008KT 26/15 A3019 RMK A01 T02580153  RH  052%=      5-min Rain = 0
KCA1 141612Z 02007KT 26/15 A3019 RMK A01 T02570154  RH  053%=      5-min Rain = 0
KCA1 141613Z 03009KT 26/16 A3019 RMK A01 T02570155  RH  053%=      5-min Rain = 0
KCA1 141614Z 04009KT 26/15 A3019 RMK A01 T02590154  RH  052%=      5-min Rain = 0
KCA1 141615Z 03008KT 26/16 A3019 RMK A01 T02600155  RH  052%=      5-min Rain = 0
KCA1 141616Z 02009KT 26/15 A3019 RMK A01 T02610154  RH  052%=      5-min Rain = 0
KCA1 141617Z 02007KT 26/15 A3019 RMK A01 T02620154  RH  052%=      5-min Rain = 0
KCA1 141618Z 03005KT 26/16 A3019 RMK A01 T02610155  RH  052%=      5-min Rain = 0
KCA1 141619Z 02005KT 26/16 A3019 RMK A01 T02610155  RH  052%=      5-min Rain = 0
KCA1 141620Z 00008KT 26/16 A3019 RMK A01 T02640155  RH  051%=      5-min Rain = 0
KCA1 141621Z 01006KT 27/15 A3019 RMK A01 T02650151  RH  049%=      5-min Rain = 0
KCA1 141622Z 01006KT 27/15 A3019 RMK A01 T02660154  RH  050%=      5-min Rain = 0
KCA1 141623Z 03005KT 27/15 A3019 RMK A01 T02680152  RH  049%=      5-min Rain = 0
KCA1 141624Z 00005KT 27/15 A3019 RMK A01 T02680152  RH  049%=      5-min Rain = 0
KCA1 141625Z 05004KT 27/15 A3018 RMK A01 T02670154  RH  050%=      5-min Rain = 0
KCA1 141626Z 04006KT 27/15 A3018 RMK A01 T02670152  RH  049%=      5-min Rain = 0
KCA1 141627Z 02006KT 27/15 A3018 RMK A01 T02670152  RH  049%=      5-min Rain = 0
KCA1 141628Z 04005KT 27/16 A3018 RMK A01 T02680155  RH  050%=      5-min Rain = 0
KCA1 141629Z 03006KT 27/15 A3018 RMK A01 T02700154  RH  049%=      5-min Rain = 0
KCA1 141630Z 03007KT 27/15 A3018 RMK A01 T02710153  RH  048%=      5-min Rain = 0
KCA1 141631Z 02007KT 27/15 A3018 RMK A01 T02700152  RH  048%=      5-min Rain = 0
KCA1 141632Z 01007KT 27/15 A3018 RMK A01 T02690153  RH  049%=      5-min Rain = 0
KCA1 141633Z 02006KT 27/15 A3018 RMK A01 T02680152  RH  049%=      5-min Rain = 0
KCA1 141634Z 00004KT 27/15 A3018 RMK A01 T02670151  RH  049%=      5-min Rain = 0
KCA1 141635Z 33003KT 27/15 A3018 RMK A01 T02660150  RH  049%=      5-min Rain = 0
KCA1 141636Z 31003KT 27/15 A3018 RMK A01 T02650152  RH  050%=      5-min Rain = 0
KCA1 141637Z 34005KT 27/15 A3018 RMK A01 T02650153  RH  050%=      5-min Rain = 0
KCA1 141638Z 02006KT 27/15 A3018 RMK A01 T02660153  RH  050%=      5-min Rain = 0
KCA1 141639Z 03005KT 27/15 A3018 RMK A01 T02670150  RH  049%=      5-min Rain = 0
KCA1 141640Z 05004KT 27/15 A3018 RMK A01 T02670150  RH  049%=      5-min Rain = 0
KCA1 141641Z 07003KT 27/15 A3018 RMK A01 T02670150  RH  049%=      5-min Rain = 0
KCA1 141642Z 06001KT 27/15 A3017 RMK A01 T02660151  RH  049%=      5-min Rain = 0
KCA1 141643Z 02000KT 27/15 A3017 RMK A01 T02670153  RH  050%=      5-min Rain = 0
KCA1 141644Z 04001KT 27/16 A3017 RMK A01 T02700155  RH  049%=      5-min Rain = 0
KCA1 141645Z 01001KT 27/15 A3017 RMK A01 T02710151  RH  048%=      5-min Rain = 0
KCA1 141646Z 06002KT 27/15 A3017 RMK A01 T02720154  RH  048%=      5-min Rain = 0
KCA1 141647Z 07003KT 27/15 A3017 RMK A01 T02720154  RH  048%=      5-min Rain = 0
KCA1 141648Z 02003KT 27/15 A3017 RMK A01 T02720153  RH  048%=      5-min Rain = 0
KCA1 141649Z 36006KT 27/15 A3017 RMK A01 T02720151  RH  048%=      5-min Rain = 0
KCA1 141650Z 35006KT 27/15 A3017 RMK A01 T02710150  RH  048%=      5-min Rain = 0
KCA1 141651Z 34004KT 27/15 A3017 RMK A01 T02690150  RH  048%=      5-min Rain = 0
KCA1 141652Z 34004KT 27/15 A3017 RMK A01 T02690151  RH  048%=      5-min Rain = 0
KCA1 141653Z 33003KT 27/15 A3016 RMK A01 T02690151  RH  048%=      5-min Rain = 0
KCA1 141654Z 31001KT 27/15 A3016 RMK A01 T02680148  RH  048%=      5-min Rain = 0
KCA1 141655Z 28001KT 27/15 A3016 RMK A01 T02670150  RH  049%=      5-min Rain = 0
KCA1 141656Z 26001KT 27/15 A3016 RMK A01 T02680150  RH  048%=      5-min Rain = 0
KCA1 141657Z 23001KT 27/15 A3016 RMK A01 T02690149  RH  048%=      5-min Rain = 0
KCA1 141658Z 27001KT 27/15 A3016 RMK A01 T02700151  RH  048%=      5-min Rain = 0
KCA1 141659Z 25001KT 27/15 A3016 RMK A01 T02700149  RH  047%=      5-min Rain = 0
KCA1 141700Z 25002KT 27/15 A3016 RMK A01 T02710150  RH  047%=      5-min Rain = 0
KCA1 141701Z 24002KT 27/15 A3016 RMK A01 T02710151  RH  048%=      5-min Rain = 0
KCA1 141702Z 25004KT 27/15 A3016 RMK A01 T02720153  RH  048%=      5-min Rain = 0
KCA1 141703Z 26004KT 27/16 A3016 RMK A01 T02740155  RH  048%=      5-min Rain = 0
KCA1 141704Z 27003KT 28/15 A3016 RMK A01 T02750153  RH  047%=      5-min Rain = 0
KCA1 141705Z 32002KT 28/15 A3016 RMK A01 T02750152  RH  047%=      5-min Rain = 0
KCA1 141706Z 26003KT 27/15 A3016 RMK A01 T02740153  RH  048%=      5-min Rain = 0
KCA1 141707Z 24004KT 27/15 A3016 RMK A01 T02740152  RH  047%=      5-min Rain = 0
KCA1 141708Z 25005KT 27/15 A3016 RMK A01 T02740153  RH  048%=      5-min Rain = 0
KCA1 141709Z 25003KT 28/15 A3016 RMK A01 T02750154  RH  048%=      5-min Rain = 0
KCA1 141710Z 26002KT 27/15 A3016 RMK A01 T02740152  RH  047%=      5-min Rain = 0
KCA1 141711Z 31001KT 27/15 A3015 RMK A01 T02740151  RH  047%=      5-min Rain = 0
KCA1 141712Z 32001KT 27/15 A3015 RMK A01 T02730149  RH  047%=      5-min Rain = 0
KCA1 141713Z 22003KT 27/15 A3015 RMK A01 T02720152  RH  048%=      5-min Rain = 0
KCA1 141714Z 21005KT 28/15 A3015 RMK A01 T02750152  RH  047%=      5-min Rain = 0
KCA1 141715Z 21003KT 28/15 A3015 RMK A01 T02770149  RH  046%=      5-min Rain = 0
KCA1 141716Z 21001KT 28/15 A3015 RMK A01 T02770149  RH  046%=      5-min Rain = 0
KCA1 141717Z 23001KT 28/15 A3015 RMK A01 T02780152  RH  046%=      5-min Rain = 0
KCA1 141718Z 29002KT 28/15 A3015 RMK A01 T02790152  RH  046%=      5-min Rain = 0
KCA1 141719Z 23003KT 28/15 A3015 RMK A01 T02800153  RH  046%=      5-min Rain = 0
KCA1 141720Z 22005KT 28/15 A3015 RMK A01 T02810152  RH  045%=      5-min Rain = 0
KCA1 141721Z 21006KT 28/15 A3015 RMK A01 T02830152  RH  045%=      5-min Rain = 0
KCA1 141722Z 21005KT 28/16 A3015 RMK A01 T02840156  RH  046%=      5-min Rain = 0
KCA1 141723Z 22005KT 29/16 A3015 RMK A01 T02860158  RH  046%=      5-min Rain = 0
KCA1 141724Z 23004KT 29/16 A3015 RMK A01 T02870156  RH  045%=      5-min Rain = 0
KCA1 141725Z 22004KT 29/16 A3014 RMK A01 T02870156  RH  045%=      5-min Rain = 0
KCA1 141726Z 20006KT 29/16 A3014 RMK A01 T02870157  RH  045%=      5-min Rain = 0
KCA1 141727Z 20004KT 29/16 A3014 RMK A01 T02870157  RH  045%=      5-min Rain = 0
KCA1 141728Z 22005KT 29/16 A3014 RMK A01 T02870157  RH  045%=      5-min Rain = 0
KCA1 141729Z 21005KT 29/16 A3014 RMK A01 T02870155  RH  045%=      5-min Rain = 0
KCA1 141730Z 20005KT 29/16 A3014 RMK A01 T02870156  RH  045%=      5-min Rain = 0
KCA1 141731Z 19005KT 29/16 A3014 RMK A01 T02870155  RH  045%=      5-min Rain = 0
KCA1 141732Z 17005KT 29/16 A3014 RMK A01 T02870156  RH  045%=      5-min Rain = 0
KCA1 141733Z 18005KT 29/16 A3014 RMK A01 T02900158  RH  045%=      5-min Rain = 0
KCA1 141734Z 19004KT 29/15 A3014 RMK A01 T02920153  RH  043%=      5-min Rain = 0
KCA1 141735Z 21004KT 29/15 A3014 RMK A01 T02900152  RH  043%=      5-min Rain = 0
KCA1 141736Z 18004KT 29/15 A3014 RMK A01 T02880151  RH  043%=      5-min Rain = 0
KCA1 141737Z 15004KT 29/15 A3014 RMK A01 T02880151  RH  043%=      5-min Rain = 0
KCA1 141738Z 14004KT 29/15 A3013 RMK A01 T02890153  RH  044%=      5-min Rain = 0
KCA1 141739Z 12003KT 29/15 A3013 RMK A01 T02910151  RH  043%=      5-min Rain = 0
KCA1 141740Z 15002KT 29/15 A3013 RMK A01 T02910150  RH  042%=      5-min Rain = 0
KCA1 141741Z 17004KT 29/15 A3013 RMK A01 T02900149  RH  042%=      5-min Rain = 0
KCA1 141742Z 17006KT 29/15 A3013 RMK A01 T02910153  RH  043%=      5-min Rain = 0
KCA1 141743Z 18007KT 29/15 A3013 RMK A01 T02930153  RH  043%=      5-min Rain = 0
KCA1 141744Z 20005KT 29/15 A3013 RMK A01 T02940151  RH  042%=      5-min Rain = 0
KCA1 141745Z 22006KT 29/15 A3013 RMK A01 T02940150  RH  042%=      5-min Rain = 0
KCA1 141746Z 21007KT 29/15 A3013 RMK A01 T02940148  RH  041%=      5-min Rain = 0
KCA1 141747Z 22005KT 29/15 A3013 RMK A01 T02940146  RH  041%=      5-min Rain = 0
KCA1 141748Z 21003KT 29/15 A3013 RMK A01 T02930145  RH  041%=      5-min Rain = 0
KCA1 141749Z 20004KT 29/15 A3013 RMK A01 T02910149  RH  042%=      5-min Rain = 0
KCA1 141750Z 19005KT 29/15 A3012 RMK A01 T02930151  RH  042%=      5-min Rain = 0
KCA1 141751Z 20006KT 30/15 A3012 RMK A01 T02960152  RH  042%=      5-min Rain = 0
KCA1 141752Z 19005KT 30/15 A3012 RMK A01 T02960148  RH  040%=      5-min Rain = 0
KCA1 141753Z 18001KT 29/15 A3012 RMK A01 T02930145  RH  040%=      5-min Rain = 0
KCA1 141754Z 20006KT 29/15 A3012 RMK A01 T02920147  RH  041%=      5-min Rain = 0
KCA1 141755Z 21005KT 29/15 A3012 RMK A01 T02940146  RH  041%=      5-min Rain = 0
KCA1 141756Z 20004KT 30/15 A3012 RMK A01 T02960146  RH  040%=      5-min Rain = 0
KCA1 141757Z 21005KT 30/15 A3012 RMK A01 T02970145  RH  040%=      5-min Rain = 0
KCA1 141758Z 22005KT 30/15 A3012 RMK A01 T02970148  RH  040%=      5-min Rain = 0
KCA1 141759Z 21004KT 30/15 A3012 RMK A01 T02970149  RH  041%=      5-min Rain = 0
KCA1 141800Z 24002KT 30/15 A3011 RMK A01 T02970149  RH  041%=      5-min Rain = 0
KCA1 141801Z 16002KT 30/15 A3011 RMK A01 T02970150  RH  041%=      5-min Rain = 0
KCA1 141802Z 20004KT 30/15 A3011 RMK A01 T02980152  RH  041%=      5-min Rain = 0
KCA1 141803Z 19006KT 30/15 A3011 RMK A01 T03010152  RH  040%=      5-min Rain = 0
KCA1 141804Z 17006KT 30/15 A3011 RMK A01 T03020153  RH  041%=      5-min Rain = 0
KCA1 141805Z 15005KT 30/15 A3011 RMK A01 T03020153  RH  040%=      5-min Rain = 0
KCA1 141806Z 16005KT 30/15 A3011 RMK A01 T03020151  RH  040%=      5-min Rain = 0
KCA1 141807Z 16006KT 30/15 A3011 RMK A01 T03030150  RH  039%=      5-min Rain = 0
KCA1 141808Z 12003KT 30/15 A3011 RMK A01 T03030147  RH  039%=      5-min Rain = 0
KCA1 141809Z 16007KT 30/15 A3011 RMK A01 T03020149  RH  039%=      5-min Rain = 0
KCA1 141810Z 13006KT 30/15 A3011 RMK A01 T03030148  RH  039%=      5-min Rain = 0
KCA1 141811Z 14005KT 31/15 A3011 RMK A01 T03050145  RH  038%=      5-min Rain = 0
KCA1 141812Z 13005KT 31/15 A3011 RMK A01 T03050148  RH  038%=      5-min Rain = 0
KCA1 141813Z 15004KT 31/15 A3011 RMK A01 T03060146  RH  038%=      5-min Rain = 0
KCA1 141814Z 13003KT 31/15 A3011 RMK A01 T03070145  RH  037%=      5-min Rain = 0
KCA1 141815Z 18002KT 31/15 A3011 RMK A01 T03070146  RH  038%=      5-min Rain = 0
KCA1 141816Z 15003KT 31/15 A3011 RMK A01 T03060145  RH  038%=      5-min Rain = 0
KCA1 141817Z 16003KT 31/15 A3011 RMK A01 T03050148  RH  039%=      5-min Rain = 0
KCA1 141818Z 17005KT 31/15 A301 RMK A01 T03060150  RH  039%=      5-min Rain = 0
KCA1 141819Z 18006KT 31/15 A301 RMK A01 T03080146  RH  037%=      5-min Rain = 0
KCA1 141820Z 16005KT 31/15 A301 RMK A01 T03070147  RH  038%=      5-min Rain = 0
KCA1 141821Z 17005KT 31/15 A301 RMK A01 T03070151  RH  039%=      5-min Rain = 0
KCA1 141822Z 18005KT 31/15 A301 RMK A01 T03100149  RH  037%=      5-min Rain = 0
KCA1 141823Z 20004KT 31/15 A301 RMK A01 T03110146  RH  037%=      5-min Rain = 0
KCA1 141824Z 20004KT 31/15 A301 RMK A01 T03110149  RH  037%=      5-min Rain = 0
KCA1 141825Z 18005KT 31/15 A301 RMK A01 T03110150  RH  038%=      5-min Rain = 0
KCA1 141826Z 19004KT 31/15 A301 RMK A01 T03110149  RH  037%=      5-min Rain = 0
KCA1 141827Z 20002KT 31/15 A301 RMK A01 T03120148  RH  037%=      5-min Rain = 0
KCA1 141828Z 16004KT 31/15 A301 RMK A01 T03130147  RH  037%=      5-min Rain = 0
KCA1 141829Z 16001KT 31/14 A301 RMK A01 T03130144  RH  036%=      5-min Rain = 0
KCA1 141830Z 19004KT 31/15 A301 RMK A01 T03120148  RH  037%=      5-min Rain = 0
KCA1 141831Z 17005KT 31/15 A301 RMK A01 T03140150  RH  037%=      5-min Rain = 0
KCA1 141832Z 16007KT 31/15 A301 RMK A01 T03140149  RH  037%=      5-min Rain = 0
KCA1 141833Z 15008KT 31/15 A301 RMK A01 T03140148  RH  037%=      5-min Rain = 0
KCA1 141834Z 15007KT 31/15 A301 RMK A01 T03140149  RH  037%=      5-min Rain = 0
KCA1 141835Z 15006KT 31/15 A301 RMK A01 T03140148  RH  036%=      5-min Rain = 0
KCA1 141836Z 16006KT 32/15 A301 RMK A01 T03150149  RH  037%=      5-min Rain = 0
KCA1 141837Z 15005KT 32/15 A301 RMK A01 T03160149  RH  036%=      5-min Rain = 0
KCA1 141838Z 14006KT 32/15 A301 RMK A01 T03160147  RH  036%=      5-min Rain = 0
KCA1 141839Z 14004KT 32/15 A301 RMK A01 T03150145  RH  036%=      5-min Rain = 0
KCA1 141840Z 14003KT 31/15 A301 RMK A01 T03130146  RH  036%=      5-min Rain = 0
KCA1 141841Z 14003KT 31/15 A301 RMK A01 T03120145  RH  036%=      5-min Rain = 0
KCA1 141842Z 13003KT 31/14 A301 RMK A01 T03120144  RH  036%=      5-min Rain = 0
KCA1 141843Z 16001KT 31/14 A301 RMK A01 T03120140  RH  035%=      5-min Rain = 0
KCA1 141844Z 14000KT 31/14 A301 RMK A01 T03110140  RH  035%=      5-min Rain = 0
KCA1 141845Z 35000KT 31/14 A301 RMK A01 T03110140  RH  035%=      5-min Rain = 0
KCA1 141846Z 20002KT 31/14 A301 RMK A01 T03110139  RH  035%=      5-min Rain = 0
KCA1 141847Z 20002KT 31/14 A301 RMK A01 T03110137  RH  034%=      5-min Rain = 0
KCA1 141848Z 23003KT 31/14 A301 RMK A01 T03110139  RH  035%=      5-min Rain = 0
KCA1 141849Z 24001KT 31/13 A301 RMK A01 T03110134  RH  034%=      5-min Rain = 0
KCA1 141850Z 21004KT 31/14 A301 RMK A01 T03120138  RH  035%=      5-min Rain = 0
KCA1 141851Z 21003KT 31/14 A301 RMK A01 T03130139  RH  035%=      5-min Rain = 0
KCA1 141852Z 22002KT 31/14 A301 RMK A01 T03140140  RH  035%=      5-min Rain = 0
KCA1 141853Z 27001KT 32/14 A301 RMK A01 T03160138  RH  034%=      5-min Rain = 0
KCA1 141854Z 00000KT 32/14 A301 RMK A01 T03170138  RH  034%=      5-min Rain = 0
KCA1 141855Z 07001KT 32/14 A301 RMK A01 T03170139  RH  034%=      5-min Rain = 0
KCA1 141856Z 11003KT 32/14 A301 RMK A01 T03170140  RH  034%=      5-min Rain = 0
KCA1 141857Z 10001KT 32/14 A301 RMK A01 T03180139  RH  034%=      5-min Rain = 0
KCA1 141858Z 12002KT 32/14 A301 RMK A01 T03170140  RH  034%=      5-min Rain = 0
KCA1 141859Z 14006KT 32/14 A301 RMK A01 T03170142  RH  035%=      5-min Rain = 0
KCA1 141900Z 15004KT 32/14 A301 RMK A01 T03170144  RH  035%=      5-min Rain = 0
KCA1 141901Z 19004KT 32/14 A301 RMK A01 T03170144  RH  035%=      5-min Rain = 0
KCA1 141902Z 20003KT 32/14 A301 RMK A01 T03200144  RH  034%=      5-min Rain = 0
KCA1 141903Z 19004KT 32/15 A301 RMK A01 T03220145  RH  034%=      5-min Rain = 0
KCA1 141904Z 18007KT 32/15 A301 RMK A01 T03240147  RH  034%=      5-min Rain = 0
KCA1 141905Z 18007KT 33/14 A301 RMK A01 T03280144  RH  033%=      5-min Rain = 0
KCA1 141906Z 19006KT 33/14 A301 RMK A01 T03280144  RH  033%=      5-min Rain = 0
KCA1 141907Z 20005KT 33/14 A301 RMK A01 T03250143  RH  033%=      5-min Rain = 0
KCA1 141908Z 20005KT 32/15 A301 RMK A01 T03240146  RH  034%=      5-min Rain = 0
KCA1 141909Z 18004KT 32/14 A301 RMK A01 T03240144  RH  034%=      5-min Rain = 0
KCA1 141910Z 20002KT 33/14 A301 RMK A01 T03250144  RH  034%=      5-min Rain = 0
KCA1 141911Z 18001KT 32/14 A301 RMK A01 T03240144  RH  034%=      5-min Rain = 0
KCA1 141912Z 09001KT 32/14 A301 RMK A01 T03240144  RH  034%=      5-min Rain = 0
KCA1 141913Z 12002KT 32/15 A301 RMK A01 T03240145  RH  034%=      5-min Rain = 0
KCA1 141914Z 10002KT 32/14 A301 RMK A01 T03240144  RH  034%=      5-min Rain = 0
KCA1 141915Z 09001KT 32/14 A301 RMK A01 T03240144  RH  034%=      5-min Rain = 0
KCA1 141916Z 12000KT 32/14 A301 RMK A01 T03220142  RH  034%=      5-min Rain = 0
KCA1 141917Z 23001KT 32/15 A301 RMK A01 T03210145  RH  034%=      5-min Rain = 0
KCA1 141918Z 24002KT 32/15 A301 RMK A01 T03230145  RH  034%=      5-min Rain = 0
KCA1 141919Z 21003KT 33/14 A301 RMK A01 T03250143  RH  033%=      5-min Rain = 0
KCA1 141920Z 20006KT 33/15 A301 RMK A01 T03280146  RH  033%=      5-min Rain = 0
KCA1 141921Z 20008KT 33/14 A301 RMK A01 T03300142  RH  032%=      5-min Rain = 0
KCA1 141922Z 20007KT 33/14 A301 RMK A01 T03290140  RH  032%=      5-min Rain = 0
KCA1 141923Z 19008KT 33/14 A301 RMK A01 T03280137  RH  032%=      5-min Rain = 0
KCA1 141924Z 19005KT 33/14 A301 RMK A01 T03270138  RH  032%=      5-min Rain = 0
KCA1 141925Z 19005KT 33/14 A301 RMK A01 T03280138  RH  032%=      5-min Rain = 0
KCA1 141926Z 23004KT 33/13 A301 RMK A01 T03290133  RH  031%=      5-min Rain = 0
KCA1 141927Z 27004KT 33/13 A301 RMK A01 T03270129  RH  030%=      5-min Rain = 0
KCA1 141928Z 31002KT 33/12 A301 RMK A01 T03270124  RH  029%=      5-min Rain = 0
KCA1 141929Z 31002KT 33/12 A301 RMK A01 T03270123  RH  029%=      5-min Rain = 0
KCA1 141930Z 24004G11KT 33/13 A301 RMK A01 T03280131  RH  030%=      5-min Rain = 0
KCA1 141931Z 21005KT 33/14 A301 RMK A01 T03330140  RH  031%=      5-min Rain = 0
KCA1 141932Z 27005KT 34/14 A301 RMK A01 T03370138  RH  030%=      5-min Rain = 0
KCA1 141933Z 31003KT 34/13 A301 RMK A01 T03350126  RH  028%=      5-min Rain = 0
KCA1 141934Z 28004KT 33/13 A301 RMK A01 T03300129  RH  030%=      5-min Rain = 0
KCA1 141935Z 27008KT 33/13 A301 RMK A01 T03300128  RH  029%=      5-min Rain = 0
KCA1 141936Z 28007KT 33/13 A301 RMK A01 T03330128  RH  029%=      5-min Rain = 0
KCA1 141937Z 30006KT 34/13 A301 RMK A01 T03370134  RH  029%=      5-min Rain = 0
KCA1 141938Z 31006KT 34/13 A301 RMK A01 T03400127  RH  028%=      5-min Rain = 0
KCA1 141939Z 35005KT 34/12 A301 RMK A01 T03370123  RH  027%=      5-min Rain = 0
KCA1 141940Z 00004KT 33/12 A301 RMK A01 T03330122  RH  028%=      5-min Rain = 0
KCA1 141941Z 32004KT 33/13 A301 RMK A01 T03310126  RH  029%=      5-min Rain = 0
KCA1 141942Z 25005KT 33/13 A301 RMK A01 T03320129  RH  029%=      5-min Rain = 0
KCA1 141943Z 25010KT 34/13 A301 RMK A01 T03370131  RH  029%=      5-min Rain = 0
KCA1 141944Z 24007KT 34/12 A301 RMK A01 T03400124  RH  027%=      5-min Rain = 0
KCA1 141945Z 25005KT 34/12 A301 RMK A01 T03390124  RH  027%=      5-min Rain = 0
KCA1 141946Z 22004KT 34/13 A301 RMK A01 T03350125  RH  028%=      5-min Rain = 0
KCA1 141947Z 20004KT 33/13 A301 RMK A01 T03330126  RH  028%=      5-min Rain = 0
KCA1 141948Z 19005KT 33/13 A301 RMK A01 T03330128  RH  029%=      5-min Rain = 0
KCA1 141949Z 23002KT 34/13 A301 RMK A01 T03350127  RH  028%=      5-min Rain = 0
KCA1 141950Z 25004KT 33/13 A301 RMK A01 T03330126  RH  028%=      5-min Rain = 0
KCA1 141951Z 26004KT 33/13 A301 RMK A01 T03320128  RH  029%=      5-min Rain = 0
KCA1 141952Z 28003KT 33/13 A301 RMK A01 T03330128  RH  029%=      5-min Rain = 0
KCA1 141953Z 28005KT 33/13 A301 RMK A01 T03340129  RH  029%=      5-min Rain = 0
KCA1 141954Z 31004KT 34/13 A301 RMK A01 T03360130  RH  029%=      5-min Rain = 0
KCA1 141955Z 26004KT 34/13 A301 RMK A01 T03370129  RH  028%=      5-min Rain = 0
KCA1 141956Z 24004KT 34/13 A301 RMK A01 T03370131  RH  029%=      5-min Rain = 0
KCA1 141957Z 23005KT 34/13 A301 RMK A01 T03370128  RH  028%=      5-min Rain = 0
KCA1 141958Z 22007KT 33/13 A301 RMK A01 T03340128  RH  029%=      5-min Rain = 0
KCA1 141959Z 21008KT 33/13 A3009 RMK A01 T03330129  RH  029%=      5-min Rain = 0
KCA1 142000Z 23008KT 33/13 A3009 RMK A01 T03310130  RH  030%=      5-min Rain = 0
KCA1 142001Z 24008KT 33/13 A3009 RMK A01 T03320131  RH  030%=      5-min Rain = 0
KCA1 142002Z 24005KT 33/13 A301 RMK A01 T03340131  RH  029%=      5-min Rain = 0
KCA1 142003Z 24004G9KT 34/13 A3009 RMK A01 T03350131  RH  029%=      5-min Rain = 0
KCA1 142004Z 24007KT 34/13 A3009 RMK A01 T03360134  RH  030%=      5-min Rain = 0
KCA1 142005Z 25008KT 34/14 A3009 RMK A01 T03370138  RH  030%=      5-min Rain = 0
KCA1 142006Z 25009KT 34/14 A3009 RMK A01 T03400138  RH  030%=      5-min Rain = 0
KCA1 142007Z 25008KT 34/14 A3009 RMK A01 T03410136  RH  029%=      5-min Rain = 0
KCA1 142008Z 25006KT 34/14 A3009 RMK A01 T03400137  RH  029%=      5-min Rain = 0
KCA1 142009Z 25007KT 34/14 A3009 RMK A01 T03390137  RH  030%=      5-min Rain = 0
KCA1 142010Z 22005KT 34/14 A3009 RMK A01 T03390135  RH  029%=      5-min Rain = 0
KCA1 142011Z 28007KT 34/14 A3009 RMK A01 T03390139  RH  030%=      5-min Rain = 0
KCA1 142012Z 30006KT 34/14 A3009 RMK A01 T03400135  RH  029%=      5-min Rain = 0
KCA1 142013Z 35004KT 34/13 A3009 RMK A01 T03390130  RH  028%=      5-min Rain = 0
KCA1 142014Z 04003KT 33/13 A3009 RMK A01 T03340131  RH  029%=      5-min Rain = 0
KCA1 142015Z 26001G7KT 33/14 A3009 RMK A01 T03340135  RH  030%=      5-min Rain = 0
KCA1 142016Z 24007KT 34/14 A3009 RMK A01 T03380138  RH  030%=      5-min Rain = 0
KCA1 142017Z 22005KT 34/14 A3009 RMK A01 T03420137  RH  029%=      5-min Rain = 0
KCA1 142018Z 20003KT 34/14 A3009 RMK A01 T03410135  RH  029%=      5-min Rain = 0
KCA1 142019Z 27004KT 34/14 A3008 RMK A01 T03400135  RH  029%=      5-min Rain = 0
KCA1 142020Z 22003KT 34/14 A3008 RMK A01 T03390136  RH  029%=      5-min Rain = 0
KCA1 142021Z 20004KT 34/14 A3008 RMK A01 T03400136  RH  029%=      5-min Rain = 0
KCA1 142022Z 19004KT 34/13 A3008 RMK A01 T03420134  RH  028%=      5-min Rain = 0
KCA1 142023Z 19005KT 34/13 A3008 RMK A01 T03430133  RH  028%=      5-min Rain = 0
KCA1 142024Z 23007KT 34/13 A3008 RMK A01 T03410134  RH  029%=      5-min Rain = 0
KCA1 142025Z 23008KT 34/14 A3008 RMK A01 T03410135  RH  029%=      5-min Rain = 0
KCA1 142026Z 24008KT 34/13 A3008 RMK A01 T03430134  RH  029%=      5-min Rain = 0
KCA1 142027Z 28005KT 34/13 A3008 RMK A01 T03430132  RH  028%=      5-min Rain = 0
KCA1 142028Z 28003KT 34/13 A3008 RMK A01 T03380129  RH  028%=      5-min Rain = 0
KCA1 142029Z 22007KT 34/13 A3008 RMK A01 T03360133  RH  029%=      5-min Rain = 0
KCA1 142030Z 21008KT 34/13 A3008 RMK A01 T03370132  RH  029%=      5-min Rain = 0
KCA1 142031Z 22008KT 34/13 A3008 RMK A01 T03370134  RH  029%=      5-min Rain = 0
KCA1 142032Z 22007KT 34/13 A3008 RMK A01 T03390134  RH  029%=      5-min Rain = 0
KCA1 142033Z 21007KT 34/13 A3008 RMK A01 T03410132  RH  028%=      5-min Rain = 0
KCA1 142034Z 24008KT 34/14 A3008 RMK A01 T03420135  RH  029%=      5-min Rain = 0
KCA1 142035Z 23007KT 34/13 A3008 RMK A01 T03440134  RH  028%=      5-min Rain = 0
KCA1 142036Z 19005KT 34/14 A3008 RMK A01 T03440135  RH  028%=      5-min Rain = 0
KCA1 142037Z 20007KT 34/13 A3008 RMK A01 T03440134  RH  028%=      5-min Rain = 0
KCA1 142038Z 23006KT 34/13 A3008 RMK A01 T03440132  RH  028%=      5-min Rain = 0
KCA1 142039Z 22004KT 34/13 A3008 RMK A01 T03440134  RH  028%=      5-min Rain = 0
KCA1 142040Z 23006KT 34/13 A3008 RMK A01 T03440134  RH  028%=      5-min Rain = 0
KCA1 142041Z 23007KT 35/13 A3008 RMK A01 T03450130  RH  027%=      5-min Rain = 0
KCA1 142042Z 22004KT 34/13 A3007 RMK A01 T03440127  RH  027%=      5-min Rain = 0
KCA1 142043Z 26007KT 34/13 A3007 RMK A01 T03420131  RH  028%=      5-min Rain = 0
KCA1 142044Z 25007KT 34/13 A3007 RMK A01 T03430131  RH  028%=      5-min Rain = 0
KCA1 142045Z 24008KT 34/13 A3007 RMK A01 T03440133  RH  028%=      5-min Rain = 0
KCA1 142046Z 27007KT 35/13 A3007 RMK A01 T03460131  RH  027%=      5-min Rain = 0
KCA1 142047Z 27004KT 35/13 A3007 RMK A01 T03450128  RH  027%=      5-min Rain = 0
KCA1 142048Z 29006KT 34/13 A3007 RMK A01 T03430128  RH  027%=      5-min Rain = 0
KCA1 142049Z 32005KT 34/13 A3007 RMK A01 T03390125  RH  027%=      5-min Rain = 0
KCA1 142050Z 35005KT 34/13 A3007 RMK A01 T03360126  RH  028%=      5-min Rain = 0
KCA1 142051Z 01004KT 34/13 A3007 RMK A01 T03350127  RH  028%=      5-min Rain = 0
KCA1 142052Z 04003KT 34/13 A3007 RMK A01 T03360127  RH  028%=      5-min Rain = 0
KCA1 142053Z 17002KT 34/13 A3007 RMK A01 T03370130  RH  029%=      5-min Rain = 0
KCA1 142054Z 24003KT 34/13 A3007 RMK A01 T03380130  RH  028%=      5-min Rain = 0
KCA1 142055Z 22003KT 34/13 A3007 RMK A01 T03410133  RH  029%=      5-min Rain = 0
KCA1 142056Z 19003KT 34/13 A3007 RMK A01 T03440132  RH  028%=      5-min Rain = 0
KCA1 142057Z 18004KT 35/13 A3007 RMK A01 T03450130  RH  027%=      5-min Rain = 0
KCA1 142058Z 17003KT 34/13 A3007 RMK A01 T03430129  RH  028%=      5-min Rain = 0
KCA1 142059Z 18003KT 34/13 A3007 RMK A01 T03420128  RH  027%=      5-min Rain = 0
KCA1 142100Z 18004KT 34/13 A3007 RMK A01 T03410128  RH  028%=      5-min Rain = 0
KCA1 142101Z 18006KT 34/13 A3007 RMK A01 T03420130  RH  028%=      5-min Rain = 0
KCA1 142102Z 17003KT 34/13 A3007 RMK A01 T03420129  RH  028%=      5-min Rain = 0
KCA1 142103Z 12003KT 34/13 A3007 RMK A01 T03400130  RH  028%=      5-min Rain = 0
KCA1 142104Z 11003KT 34/13 A3007 RMK A01 T03380128  RH  028%=      5-min Rain = 0
KCA1 142105Z 12006KT 34/13 A3006 RMK A01 T03360129  RH  028%=      5-min Rain = 0
KCA1 142106Z 11005KT 34/13 A3006 RMK A01 T03390129  RH  028%=      5-min Rain = 0
KCA1 142107Z 13005KT 34/13 A3006 RMK A01 T03400131  RH  028%=      5-min Rain = 0
KCA1 142108Z 23008KT 35/14 A3006 RMK A01 T03470137  RH  028%=      5-min Rain = 0
KCA1 142109Z 23007KT 35/14 A3006 RMK A01 T03530135  RH  027%=      5-min Rain = 0
KCA1 142110Z 20007KT 35/13 A3006 RMK A01 T03540131  RH  026%=      5-min Rain = 0
KCA1 142111Z 20005KT 35/13 A3006 RMK A01 T03510130  RH  026%=      5-min Rain = 0
KCA1 142112Z 18004KT 35/13 A3006 RMK A01 T03490127  RH  026%=      5-min Rain = 0
KCA1 142113Z 17003KT 35/13 A3006 RMK A01 T03470129  RH  027%=      5-min Rain = 0
KCA1 142114Z 18009KT 35/13 A3006 RMK A01 T03460131  RH  027%=      5-min Rain = 0
KCA1 142115Z 21008KT 35/13 A3006 RMK A01 T03460132  RH  028%=      5-min Rain = 0
KCA1 142116Z 20005KT 35/13 A3006 RMK A01 T03470131  RH  027%=      5-min Rain = 0
KCA1 142117Z 21007KT 35/13 A3006 RMK A01 T03470133  RH  028%=      5-min Rain = 0
KCA1 142118Z 19008KT 35/13 A3006 RMK A01 T03470129  RH  027%=      5-min Rain = 0
KCA1 142119Z 17005KT 35/13 A3006 RMK A01 T03470127  RH  026%=      5-min Rain = 0
KCA1 142120Z 13004KT 35/13 A3006 RMK A01 T03460126  RH  027%=      5-min Rain = 0
KCA1 142121Z 06004KT 34/13 A3006 RMK A01 T03430125  RH  027%=      5-min Rain = 0
KCA1 142122Z 06005KT 34/13 A3006 RMK A01 T03400125  RH  027%=      5-min Rain = 0
KCA1 142123Z 05004KT 34/13 A3006 RMK A01 T03390126  RH  028%=      5-min Rain = 0
KCA1 142124Z 04005KT 34/13 A3006 RMK A01 T03400129  RH  028%=      5-min Rain = 0
KCA1 142125Z 06004KT 34/13 A3006 RMK A01 T03430130  RH  028%=      5-min Rain = 0
KCA1 142126Z 06003KT 35/13 A3006 RMK A01 T03450131  RH  027%=      5-min Rain = 0
KCA1 142127Z 02004KT 35/13 A3005 RMK A01 T03460130  RH  027%=      5-min Rain = 0
KCA1 142128Z 04005KT 35/13 A3005 RMK A01 T03460133  RH  028%=      5-min Rain = 0
KCA1 142129Z 02006KT 34/13 A3005 RMK A01 T03440131  RH  028%=      5-min Rain = 0
KCA1 142130Z 02006KT 34/13 A3005 RMK A01 T03410132  RH  028%=      5-min Rain = 0
KCA1 142131Z 01008KT 34/13 A3005 RMK A01 T03410134  RH  029%=      5-min Rain = 0
KCA1 142132Z 01006KT 34/13 A3005 RMK A01 T03420134  RH  029%=      5-min Rain = 0
KCA1 142133Z 02006KT 34/13 A3005 RMK A01 T03410133  RH  028%=      5-min Rain = 0
KCA1 142134Z 03005KT 34/13 A3005 RMK A01 T03390134  RH  029%=      5-min Rain = 0
KCA1 142135Z 01006KT 34/13 A3005 RMK A01 T03400134  RH  029%=      5-min Rain = 0
KCA1 142136Z 35007KT 34/14 A3005 RMK A01 T03410135  RH  029%=      5-min Rain = 0
KCA1 142137Z 33007KT 34/14 A3005 RMK A01 T03440139  RH  029%=      5-min Rain = 0
KCA1 142138Z 33010KT 35/14 A3005 RMK A01 T03480137  RH  028%=      5-min Rain = 0
KCA1 142139Z 30008KT 35/14 A3005 RMK A01 T03500138  RH  028%=      5-min Rain = 0
KCA1 142140Z 29006KT 35/14 A3005 RMK A01 T03520136  RH  027%=      5-min Rain = 0
KCA1 142141Z 30006KT 35/14 A3005 RMK A01 T03510136  RH  028%=      5-min Rain = 0
KCA1 142142Z 34007KT 35/14 A3005 RMK A01 T03490135  RH  028%=      5-min Rain = 0
KCA1 142143Z 00004KT 35/13 A3005 RMK A01 T03460132  RH  028%=      5-min Rain = 0
KCA1 142144Z 08001KT 34/13 A3005 RMK A01 T03430132  RH  028%=      5-min Rain = 0
KCA1 142145Z 32002KT 34/13 A3005 RMK A01 T03420132  RH  028%=      5-min Rain = 0
KCA1 142146Z 29004KT 34/14 A3005 RMK A01 T03420135  RH  029%=      5-min Rain = 0
KCA1 142147Z 31002KT 34/13 A3005 RMK A01 T03430132  RH  028%=      5-min Rain = 0
KCA1 142148Z 35002KT 34/13 A3005 RMK A01 T03430134  RH  028%=      5-min Rain = 0
KCA1 142149Z 00003KT 34/14 A3005 RMK A01 T03430136  RH  029%=      5-min Rain = 0
KCA1 142150Z 05007KT 35/14 A3005 RMK A01 T03450138  RH  029%=      5-min Rain = 0
KCA1 142151Z 05007KT 34/14 A3005 RMK A01 T03430139  RH  029%=      5-min Rain = 0
KCA1 142152Z 08004KT 34/14 A3005 RMK A01 T03370140  RH  031%=      5-min Rain = 0
KCA1 142153Z 11001KT 33/14 A3005 RMK A01 T03320140  RH  031%=      5-min Rain = 0
KCA1 142154Z 33002KT 33/14 A3005 RMK A01 T03310139  RH  031%=      5-min Rain = 0
KCA1 142155Z 01004KT 33/14 A3005 RMK A01 T03310138  RH  031%=      5-min Rain = 0
KCA1 142156Z 01006KT 33/14 A3005 RMK A01 T03310142  RH  032%=      5-min Rain = 0
KCA1 142157Z 03006KT 33/14 A3005 RMK A01 T03310143  RH  032%=      5-min Rain = 0
KCA1 142158Z 05009KT 33/15 A3005 RMK A01 T03310145  RH  033%=      5-min Rain = 0
KCA1 142159Z 06007KT 33/14 A3004 RMK A01 T03310144  RH  032%=      5-min Rain = 0
KCA1 142200Z 06007KT 33/14 A3004 RMK A01 T03300144  RH  032%=      5-min Rain = 0
KCA1 142201Z 05010KT 33/15 A3004 RMK A01 T03300148  RH  033%=      5-min Rain = 0
KCA1 142202Z 06006KT 34/15 A3004 RMK A01 T03360154  RH  034%=      5-min Rain = 0
KCA1 142203Z 05008KT 34/16 A3004 RMK A01 T03420157  RH  033%=      5-min Rain = 0
KCA1 142204Z 06012KT 34/16 A3004 RMK A01 T03440155  RH  032%=      5-min Rain = 0
KCA1 142205Z 06011KT 34/15 A3004 RMK A01 T03410154  RH  033%=      5-min Rain = 0
KCA1 142206Z 05009KT 34/15 A3004 RMK A01 T03400153  RH  033%=      5-min Rain = 0
KCA1 142207Z 06011KT 34/15 A3004 RMK A01 T03420152  RH  032%=      5-min Rain = 0
KCA1 142208Z 04009KT 34/15 A3004 RMK A01 T03400151  RH  032%=      5-min Rain = 0
KCA1 142209Z 06008KT 34/15 A3004 RMK A01 T03370153  RH  033%=      5-min Rain = 0
KCA1 142210Z 07012KT 34/15 A3004 RMK A01 T03390152  RH  033%=      5-min Rain = 0
KCA1 142211Z 07008KT 34/15 A3004 RMK A01 T03370149  RH  032%=      5-min Rain = 0
KCA1 142212Z 05006KT 33/15 A3004 RMK A01 T03320150  RH  033%=      5-min Rain = 0
KCA1 142213Z 04008KT 33/15 A3004 RMK A01 T03320148  RH  033%=      5-min Rain = 0
KCA1 142214Z 05008KT 33/15 A3004 RMK A01 T03320148  RH  033%=      5-min Rain = 0
KCA1 142215Z 06008KT 33/15 A3004 RMK A01 T03330146  RH  032%=      5-min Rain = 0
KCA1 142216Z 06007KT 33/15 A3004 RMK A01 T03330146  RH  032%=      5-min Rain = 0
KCA1 142217Z 08006KT 33/15 A3004 RMK A01 T03340147  RH  033%=      5-min Rain = 0
KCA1 142218Z 08006KT 34/15 A3004 RMK A01 T03360149  RH  032%=      5-min Rain = 0
KCA1 142219Z 08007KT 34/15 A3004 RMK A01 T03370145  RH  032%=      5-min Rain = 0
KCA1 142220Z 08004KT 34/14 A3004 RMK A01 T03370144  RH  031%=      5-min Rain = 0
KCA1 142221Z 04004KT 34/15 A3004 RMK A01 T03360145  RH  032%=      5-min Rain = 0
KCA1 142222Z 02003KT 34/14 A3004 RMK A01 T03360143  RH  031%=      5-min Rain = 0
KCA1 142223Z 01001KT 34/14 A3004 RMK A01 T03350142  RH  031%=      5-min Rain = 0
KCA1 142224Z 35002KT 34/14 A3004 RMK A01 T03360144  RH  031%=      5-min Rain = 0
KCA1 142225Z 02004KT 34/15 A3004 RMK A01 T03370146  RH  032%=      5-min Rain = 0
KCA1 142226Z 03007KT 34/15 A3004 RMK A01 T03370148  RH  032%=      5-min Rain = 0
KCA1 142227Z 04009KT 34/15 A3004 RMK A01 T03390151  RH  032%=      5-min Rain = 0
KCA1 142228Z 04010KT 34/16 A3004 RMK A01 T03400155  RH  033%=      5-min Rain = 0
KCA1 142229Z 05010KT 34/16 A3004 RMK A01 T03410155  RH  033%=      5-min Rain = 0
KCA1 142230Z 06009KT 34/16 A3004 RMK A01 T03430157  RH  033%=      5-min Rain = 0
KCA1 142231Z 05007KT 34/16 A3004 RMK A01 T03440157  RH  033%=      5-min Rain = 0
KCA1 142232Z 04010KT 34/16 A3004 RMK A01 T03440155  RH  032%=      5-min Rain = 0
KCA1 142233Z 06010KT 34/16 A3004 RMK A01 T03420155  RH  033%=      5-min Rain = 0
KCA1 142234Z 06009KT 34/16 A3004 RMK A01 T03410155  RH  033%=      5-min Rain = 0
KCA1 142235Z 04010KT 34/16 A3004 RMK A01 T03410155  RH  033%=      5-min Rain = 0
KCA1 142236Z 03011KT 34/15 A3004 RMK A01 T03400152  RH  032%=      5-min Rain = 0
KCA1 142237Z 03011KT 34/15 A3004 RMK A01 T03380152  RH  033%=      5-min Rain = 0
KCA1 142238Z 04010KT 34/15 A3004 RMK A01 T03370151  RH  033%=      5-min Rain = 0
KCA1 142239Z 06007KT 34/15 A3004 RMK A01 T03360153  RH  033%=      5-min Rain = 0
KCA1 142240Z 05008KT 34/16 A3004 RMK A01 T03380155  RH  033%=      5-min Rain = 0
KCA1 142241Z 06009KT 34/15 A3004 RMK A01 T03390154  RH  033%=      5-min Rain = 0
KCA1 142242Z 05010KT 34/15 A3004 RMK A01 T03390153  RH  033%=      5-min Rain = 0
KCA1 142243Z 04009KT 34/15 A3004 RMK A01 T03380153  RH  033%=      5-min Rain = 0
KCA1 142244Z 04006KT 34/15 A3004 RMK A01 T03360150  RH  033%=      5-min Rain = 0
KCA1 142245Z 06010G15KT 33/15 A3004 RMK A01 T03340152  RH  034%=      5-min Rain = 0
KCA1 142246Z 07012KT 34/15 A3004 RMK A01 T03350151  RH  033%=      5-min Rain = 0
KCA1 142247Z 07009KT 33/15 A3004 RMK A01 T03330150  RH  033%=      5-min Rain = 0
KCA1 142248Z 08006KT 33/15 A3004 RMK A01 T03320150  RH  033%=      5-min Rain = 0
KCA1 142249Z 07007KT 33/15 A3004 RMK A01 T03320149  RH  033%=      5-min Rain = 0
KCA1 142250Z 06008KT 33/15 A3004 RMK A01 T03320149  RH  033%=      5-min Rain = 0
KCA1 142251Z 08008KT 33/15 A3004 RMK A01 T03330151  RH  033%=      5-min Rain = 0
KCA1 142252Z 07007KT 34/15 A3004 RMK A01 T03350151  RH  033%=      5-min Rain = 0
KCA1 142253Z 04005KT 34/15 A3004 RMK A01 T03360151  RH  033%=      5-min Rain = 0
KCA1 142254Z 06008KT 34/15 A3004 RMK A01 T03370151  RH  033%=      5-min Rain = 0
KCA1 142255Z 05008KT 34/15 A3004 RMK A01 T03390151  RH  032%=      5-min Rain = 0
KCA1 142256Z 06005KT 34/15 A3004 RMK A01 T03390151  RH  032%=      5-min Rain = 0
KCA1 142257Z 08008KT 34/15 A3004 RMK A01 T03390150  RH  032%=      5-min Rain = 0
KCA1 142258Z 06007KT 34/15 A3003 RMK A01 T03370150  RH  033%=      5-min Rain = 0
KCA1 142259Z 06005KT 34/15 A3003 RMK A01 T03370152  RH  033%=      5-min Rain = 0
KCA1 142300Z 05006KT 34/15 A3003 RMK A01 T03370151  RH  033%=      5-min Rain = 0
KCA1 142301Z 07008KT 34/15 A3003 RMK A01 T03380152  RH  033%=      5-min Rain = 0
KCA1 142302Z 07008KT 34/15 A3003 RMK A01 T03390150  RH  032%=      5-min Rain = 0
KCA1 142303Z 05010KT 34/15 A3003 RMK A01 T03390151  RH  032%=      5-min Rain = 0
KCA1 142304Z 05011KT 34/15 A3003 RMK A01 T03390149  RH  032%=      5-min Rain = 0
KCA1 142305Z 05010KT 34/15 A3003 RMK A01 T03370148  RH  032%=      5-min Rain = 0
KCA1 142306Z 04010KT 34/15 A3003 RMK A01 T03350146  RH  032%=      5-min Rain = 0
KCA1 142307Z 05010KT 33/15 A3003 RMK A01 T03330146  RH  032%=      5-min Rain = 0
KCA1 142308Z 06010KT 33/15 A3003 RMK A01 T03320147  RH  033%=      5-min Rain = 0
KCA1 142309Z 05009KT 33/15 A3003 RMK A01 T03340146  RH  032%=      5-min Rain = 0
KCA1 142310Z 05005KT 33/14 A3003 RMK A01 T03330144  RH  032%=      5-min Rain = 0
KCA1 142311Z 03006KT 33/15 A3003 RMK A01 T03310145  RH  032%=      5-min Rain = 0
KCA1 142312Z 00004KT 33/15 A3003 RMK A01 T03310145  RH  033%=      5-min Rain = 0
KCA1 142313Z 04005KT 33/15 A3003 RMK A01 T03330147  RH  033%=      5-min Rain = 0
KCA1 142314Z 06007KT 34/15 A3003 RMK A01 T03350147  RH  032%=      5-min Rain = 0
KCA1 142315Z 05008KT 34/15 A3003 RMK A01 T03360147  RH  032%=      5-min Rain = 0
KCA1 142316Z 03005KT 34/15 A3003 RMK A01 T03360146  RH  032%=      5-min Rain = 0
KCA1 142317Z 04006KT 34/15 A3003 RMK A01 T03360146  RH  032%=      5-min Rain = 0
KCA1 142318Z 05007KT 34/15 A3003 RMK A01 T03360145  RH  032%=      5-min Rain = 0
KCA1 142319Z 05008KT 34/15 A3003 RMK A01 T03350145  RH  032%=      5-min Rain = 0
KCA1 142320Z 05008KT 33/15 A3003 RMK A01 T03340147  RH  032%=      5-min Rain = 0
KCA1 142321Z 04008KT 34/15 A3003 RMK A01 T03350147  RH  032%=      5-min Rain = 0
KCA1 142322Z 03008KT 34/15 A3003 RMK A01 T03350146  RH  032%=      5-min Rain = 0
KCA1 142323Z 03007KT 34/15 A3003 RMK A01 T03350148  RH  032%=      5-min Rain = 0
KCA1 142324Z 05007KT 33/15 A3003 RMK A01 T03340149  RH  033%=      5-min Rain = 0
KCA1 142325Z 06005G10KT 34/15 A3003 RMK A01 T03350153  RH  034%=      5-min Rain = 0
KCA1 142326Z 07009KT 34/15 A3003 RMK A01 T03360154  RH  034%=      5-min Rain = 0
KCA1 142327Z 08009KT 34/16 A3003 RMK A01 T03350155  RH  034%=      5-min Rain = 0
KCA1 142328Z 09007KT 33/15 A3004 RMK A01 T03340154  RH  034%=      5-min Rain = 0
KCA1 142329Z 10007KT 33/15 A3003 RMK A01 T03320154  RH  034%=      5-min Rain = 0
KCA1 142330Z 09007KT 33/15 A3003 RMK A01 T03310154  RH  035%=      5-min Rain = 0
KCA1 142331Z 11005KT 33/16 A3003 RMK A01 T03310155  RH  035%=      5-min Rain = 0
KCA1 142332Z 07008KT 33/16 A3003 RMK A01 T03310156  RH  035%=      5-min Rain = 0
KCA1 142333Z 08007KT 33/16 A3003 RMK A01 T03320155  RH  035%=      5-min Rain = 0
KCA1 142334Z 08008KT 33/15 A3003 RMK A01 T03330154  RH  034%=      5-min Rain = 0
KCA1 142335Z 08011KT 33/15 A3003 RMK A01 T03340153  RH  034%=      5-min Rain = 0
KCA1 142336Z 08010KT 33/15 A3003 RMK A01 T03340152  RH  034%=      5-min Rain = 0
KCA1 142337Z 08011KT 33/15 A3003 RMK A01 T03330151  RH  033%=      5-min Rain = 0
KCA1 142338Z 06010KT 33/15 A3003 RMK A01 T03320151  RH  034%=      5-min Rain = 0
KCA1 142339Z 05010KT 33/15 A3003 RMK A01 T03310150  RH  034%=      5-min Rain = 0
KCA1 142340Z 05009KT 33/15 A3003 RMK A01 T03300151  RH  034%=      5-min Rain = 0
KCA1 142341Z 06009KT 33/15 A3003 RMK A01 T03300152  RH  034%=      5-min Rain = 0
KCA1 142342Z 05009KT 33/15 A3003 RMK A01 T03300151  RH  034%=      5-min Rain = 0
KCA1 142343Z 06007KT 33/15 A3003 RMK A01 T03300152  RH  034%=      5-min Rain = 0
KCA1 142344Z 10008KT 33/15 A3003 RMK A01 T03300152  RH  034%=      5-min Rain = 0
KCA1 142345Z 11010KT 33/15 A3003 RMK A01 T03300153  RH  035%=      5-min Rain = 0
KCA1 142346Z 07010KT 33/15 A3003 RMK A01 T03310154  RH  035%=      5-min Rain = 0
KCA1 142347Z 07009KT 33/15 A3003 RMK A01 T03310153  RH  034%=      5-min Rain = 0
KCA1 142348Z 08008KT 33/15 A3003 RMK A01 T03300154  RH  035%=      5-min Rain = 0
KCA1 142349Z 08008KT 33/15 A3003 RMK A01 T03300153  RH  035%=      5-min Rain = 0
KCA1 142350Z 09009KT 33/15 A3003 RMK A01 T03300153  RH  035%=      5-min Rain = 0
KCA1 142351Z 08009KT 33/15 A3003 RMK A01 T03290152  RH  035%=      5-min Rain = 0
KCA1 142352Z 08008KT 33/15 A3003 RMK A01 T03280151  RH  035%=      5-min Rain = 0
KCA1 142353Z 06009KT 33/15 A3003 RMK A01 T03280152  RH  035%=      5-min Rain = 0
KCA1 142354Z 06010KT 33/15 A3003 RMK A01 T03290151  RH  034%=      5-min Rain = 0
KCA1 142355Z 07008KT 33/15 A3003 RMK A01 T03280151  RH  034%=      5-min Rain = 0
KCA1 142356Z 07009KT 33/15 A3003 RMK A01 T03280151  RH  034%=      5-min Rain = 0
KCA1 142357Z 07008KT 33/15 A3003 RMK A01 T03290151  RH  034%=      5-min Rain = 0
KCA1 142358Z 06009KT 33/15 A3003 RMK A01 T03280151  RH  034%=      5-min Rain = 0
KCA1 142359Z 06007KT 33/15 A3003 RMK A01 T03280151  RH  035%=      5-min Rain = 0
KCA1 150000Z 06006KT 33/15 A3003 RMK A01 T03290152  RH  034%=      5-min Rain = 0
KCA1 150001Z 07006KT 33/15 A3003 RMK A01 T03290150  RH  034%=      5-min Rain = 0
KCA1 150002Z 09005KT 33/15 A3003 RMK A01 T03290152  RH  034%=      5-min Rain = 0
KCA1 150003Z 09007KT 33/15 A3003 RMK A01 T03290153  RH  035%=      5-min Rain = 0
KCA1 150004Z 08008KT 33/15 A3003 RMK A01 T03290154  RH  035%=      5-min Rain = 0
KCA1 150005Z 08009KT 33/15 A3003 RMK A01 T03290154  RH  035%=      5-min Rain = 0
KCA1 150006Z 08009KT 33/15 A3003 RMK A01 T03280153  RH  035%=      5-min Rain = 0
KCA1 150007Z 09008KT 33/15 A3003 RMK A01 T03280153  RH  035%=      5-min Rain = 0
KCA1 150008Z 10007KT 33/15 A3003 RMK A01 T03280153  RH  035%=      5-min Rain = 0
KCA1 150009Z 10006KT 33/15 A3003 RMK A01 T03270151  RH  035%=      5-min Rain = 0
KCA1 150010Z 09008KT 33/15 A3003 RMK A01 T03260151  RH  035%=      5-min Rain = 0
KCA1 150011Z 08008KT 33/15 A3003 RMK A01 T03260151  RH  035%=      5-min Rain = 0
KCA1 150012Z 08008KT 33/15 A3003 RMK A01 T03250151  RH  035%=      5-min Rain = 0
KCA1 150013Z 09007KT 33/15 A3003 RMK A01 T03250151  RH  035%=      5-min Rain = 0
KCA1 150014Z 09008KT 33/15 A3003 RMK A01 T03250151  RH  035%=      5-min Rain = 0
KCA1 150015Z 09007KT 33/15 A3003 RMK A01 T03250152  RH  035%=      5-min Rain = 0
KCA1 150016Z 09008KT 33/15 A3003 RMK A01 T03250153  RH  035%=      5-min Rain = 0
KCA1 150017Z 08009KT 33/15 A3003 RMK A01 T03250152  RH  035%=      5-min Rain = 0
KCA1 150018Z 07007KT 32/15 A3003 RMK A01 T03240152  RH  036%=      5-min Rain = 0
KCA1 150019Z 06007KT 32/15 A3003 RMK A01 T03240154  RH  036%=      5-min Rain = 0
KCA1 150020Z 07009KT 32/15 A3003 RMK A01 T03240154  RH  036%=      5-min Rain = 0
KCA1 150021Z 08010KT 32/15 A3003 RMK A01 T03240154  RH  036%=      5-min Rain = 0
KCA1 150022Z 07007KT 32/15 A3003 RMK A01 T03240154  RH  036%=      5-min Rain = 0
KCA1 150023Z 07008KT 32/15 A3003 RMK A01 T03240154  RH  036%=      5-min Rain = 0
KCA1 150024Z 08008KT 32/15 A3003 RMK A01 T03230152  RH  036%=      5-min Rain = 0
KCA1 150025Z 07007KT 32/15 A3003 RMK A01 T03220154  RH  036%=      5-min Rain = 0
KCA1 150026Z 08008KT 32/15 A3003 RMK A01 T03220154  RH  036%=      5-min Rain = 0
KCA1 150027Z 07009KT 32/15 A3003 RMK A01 T03210153  RH  036%=      5-min Rain = 0
KCA1 150028Z 08008KT 32/15 A3003 RMK A01 T03210152  RH  036%=      5-min Rain = 0
KCA1 150029Z 07008KT 32/15 A3003 RMK A01 T03210153  RH  036%=      5-min Rain = 0
KCA1 150030Z 07008KT 32/15 A3003 RMK A01 T03200152  RH  036%=      5-min Rain = 0
KCA1 150031Z 07007KT 32/15 A3003 RMK A01 T03200152  RH  036%=      5-min Rain = 0
KCA1 150032Z 07007KT 32/15 A3003 RMK A01 T03200152  RH  036%=      5-min Rain = 0
KCA1 150033Z 07006KT 32/15 A3003 RMK A01 T03200154  RH  037%=      5-min Rain = 0
KCA1 150034Z 07008KT 32/15 A3003 RMK A01 T03190154  RH  037%=      5-min Rain = 0
KCA1 150035Z 07008KT 32/15 A3003 RMK A01 T03200153  RH  037%=      5-min Rain = 0
KCA1 150036Z 07007KT 32/15 A3003 RMK A01 T03190154  RH  037%=      5-min Rain = 0
KCA1 150037Z 07008KT 32/16 A3003 RMK A01 T03190155  RH  037%=      5-min Rain = 0
KCA1 150038Z 08007KT 32/15 A3003 RMK A01 T03190154  RH  037%=      5-min Rain = 0
KCA1 150039Z 08007KT 32/16 A3003 RMK A01 T03180155  RH  037%=      5-min Rain = 0
KCA1 150040Z 07008KT 32/16 A3003 RMK A01 T03180155  RH  037%=      5-min Rain = 0
KCA1 150041Z 07008KT 32/15 A3003 RMK A01 T03180154  RH  037%=      5-min Rain = 0
KCA1 150042Z 08007KT 32/16 A3003 RMK A01 T03170155  RH  037%=      5-min Rain = 0
KCA1 150043Z 07007KT 32/16 A3003 RMK A01 T03170156  RH  038%=      5-min Rain = 0
KCA1 150044Z 08006KT 32/16 A3004 RMK A01 T03170155  RH  038%=      5-min Rain = 0
KCA1 150045Z 08005KT 32/16 A3004 RMK A01 T03160157  RH  038%=      5-min Rain = 0
KCA1 150046Z 08006KT 32/16 A3004 RMK A01 T03150158  RH  039%=      5-min Rain = 0
KCA1 150047Z 08006KT 32/16 A3004 RMK A01 T03150156  RH  038%=      5-min Rain = 0
KCA1 150048Z 07006KT 31/16 A3004 RMK A01 T03140157  RH  039%=      5-min Rain = 0
KCA1 150049Z 07007KT 31/16 A3004 RMK A01 T03130156  RH  039%=      5-min Rain = 0
KCA1 150050Z 07007KT 31/16 A3004 RMK A01 T03120155  RH  039%=      5-min Rain = 0
KCA1 150051Z 07007KT 31/16 A3004 RMK A01 T03120156  RH  039%=      5-min Rain = 0
KCA1 150052Z 08006KT 31/16 A3004 RMK A01 T03100156  RH  039%=      5-min Rain = 0
KCA1 150053Z 07007KT 31/16 A3004 RMK A01 T03090156  RH  039%=      5-min Rain = 0
KCA1 150054Z 07008KT 31/16 A3004 RMK A01 T03080155  RH  040%=      5-min Rain = 0
KCA1 150055Z 07007KT 31/15 A3004 RMK A01 T03070154  RH  039%=      5-min Rain = 0
KCA1 150056Z 07006KT 31/15 A3004 RMK A01 T03070153  RH  039%=      5-min Rain = 0
KCA1 150057Z 08007KT 31/15 A3004 RMK A01 T03060154  RH  040%=      5-min Rain = 0
KCA1 150058Z 07006KT 31/16 A3004 RMK A01 T03050155  RH  040%=      5-min Rain = 0
KCA1 150059Z 07007KT 30/16 A3004 RMK A01 T03030155  RH  041%=      5-min Rain = 0
KCA1 150100Z 08007KT 30/16 A3004 RMK A01 T03020155  RH  041%=      5-min Rain = 0
KCA1 150101Z 07007KT 30/16 A3004 RMK A01 T03010155  RH  041%=      5-min Rain = 0
KCA1 150102Z 07007KT 30/16 A3004 RMK A01 T03000155  RH  041%=      5-min Rain = 0
KCA1 150103Z 07007KT 30/16 A3004 RMK A01 T02990155  RH  042%=      5-min Rain = 0
KCA1 150104Z 07007KT 30/16 A3004 RMK A01 T02980156  RH  042%=      5-min Rain = 0
KCA1 150105Z 07007KT 30/16 A3004 RMK A01 T02970155  RH  042%=      5-min Rain = 0
KCA1 150106Z 07007KT 30/16 A3004 RMK A01 T02960155  RH  042%=      5-min Rain = 0
KCA1 150107Z 07007KT 30/16 A3004 RMK A01 T02950155  RH  043%=      5-min Rain = 0
KCA1 150108Z 06007KT 29/16 A3004 RMK A01 T02940155  RH  043%=      5-min Rain = 0
KCA1 150109Z 06007KT 29/16 A3004 RMK A01 T02930155  RH  043%=      5-min Rain = 0
KCA1 150110Z 06007KT 29/16 A3004 RMK A01 T02920155  RH  044%=      5-min Rain = 0
KCA1 150111Z 06007KT 29/16 A3004 RMK A01 T02900155  RH  044%=      5-min Rain = 0
KCA1 150112Z 06007KT 29/16 A3004 RMK A01 T02890155  RH  044%=      5-min Rain = 0
KCA1 150113Z 06007KT 29/16 A3004 RMK A01 T02880156  RH  045%=      5-min Rain = 0
KCA1 150114Z 06008KT 29/16 A3004 RMK A01 T02870155  RH  045%=      5-min Rain = 0
KCA1 150115Z 06008KT 29/16 A3004 RMK A01 T02860155  RH  045%=      5-min Rain = 0
KCA1 150116Z 06008KT 29/16 A3004 RMK A01 T02850155  RH  045%=      5-min Rain = 0
KCA1 150117Z 06008KT 28/16 A3004 RMK A01 T02840155  RH  045%=      5-min Rain = 0
KCA1 150118Z 06008KT 28/16 A3004 RMK A01 T02840155  RH  046%=      5-min Rain = 0
KCA1 150119Z 06008KT 28/16 A3004 RMK A01 T02830155  RH  046%=      5-min Rain = 0
KCA1 150120Z 06008KT 28/16 A3004 RMK A01 T02820155  RH  046%=      5-min Rain = 0
KCA1 150121Z 06008KT 28/16 A3004 RMK A01 T02820155  RH  046%=      5-min Rain = 0
KCA1 150122Z 07008KT 28/16 A3005 RMK A01 T02810155  RH  046%=      5-min Rain = 0
KCA1 150123Z 07008KT 28/15 A3005 RMK A01 T02810154  RH  046%=      5-min Rain = 0
KCA1 150124Z 06008KT 28/15 A3005 RMK A01 T02810154  RH  046%=      5-min Rain = 0
KCA1 150125Z 06008KT 28/15 A3005 RMK A01 T02800154  RH  046%=      5-min Rain = 0
KCA1 150126Z 06008KT 28/15 A3005 RMK A01 T02800154  RH  046%=      5-min Rain = 0
KCA1 150127Z 06008KT 28/15 A3005 RMK A01 T02790154  RH  046%=      5-min Rain = 0
KCA1 150128Z 06008KT 28/15 A3005 RMK A01 T02790154  RH  046%=      5-min Rain = 0
KCA1 150129Z 06008KT 28/15 A3005 RMK A01 T02780153  RH  046%=      5-min Rain = 0
KCA1 150130Z 06008KT 28/15 A3005 RMK A01 T02780153  RH  047%=      5-min Rain = 0
KCA1 150131Z 06008KT 28/15 A3005 RMK A01 T02780153  RH  047%=      5-min Rain = 0
KCA1 150132Z 06008KT 28/15 A3005 RMK A01 T02770153  RH  047%=      5-min Rain = 0
KCA1 150133Z 07008KT 28/15 A3005 RMK A01 T02770153  RH  047%=      5-min Rain = 0
KCA1 150134Z 07008KT 28/15 A3005 RMK A01 T02760153  RH  047%=      5-min Rain = 0
KCA1 150135Z 07008KT 28/15 A3005 RMK A01 T02760153  RH  047%=      5-min Rain = 0
KCA1 150136Z 07009KT 28/15 A3005 RMK A01 T02750152  RH  047%=      5-min Rain = 0
KCA1 150137Z 07009KT 28/15 A3005 RMK A01 T02750152  RH  047%=      5-min Rain = 0
KCA1 150138Z 07008KT 27/15 A3005 RMK A01 T02740152  RH  047%=      5-min Rain = 0
KCA1 150139Z 07009KT 27/15 A3005 RMK A01 T02740151  RH  047%=      5-min Rain = 0
KCA1 150140Z 07009KT 27/15 A3005 RMK A01 T02740151  RH  047%=      5-min Rain = 0
KCA1 150141Z 07008KT 28/15 A3005 RMK A01 T02750151  RH  047%=      5-min Rain = 0
KCA1 150142Z 07008KT 28/15 A3005 RMK A01 T02750151  RH  047%=      5-min Rain = 0
KCA1 150143Z 07009KT 28/15 A3005 RMK A01 T02750150  RH  047%=      5-min Rain = 0
KCA1 150144Z 07009KT 28/15 A3005 RMK A01 T02750151  RH  047%=      5-min Rain = 0
KCA1 150145Z 07009KT 28/15 A3005 RMK A01 T02750150  RH  046%=      5-min Rain = 0
KCA1 150146Z 07009KT 28/15 A3005 RMK A01 T02750150  RH  046%=      5-min Rain = 0
KCA1 150147Z 07009KT 28/15 A3005 RMK A01 T02760150  RH  046%=      5-min Rain = 0
KCA1 150148Z 08008KT 28/15 A3005 RMK A01 T02770149  RH  046%=      5-min Rain = 0
KCA1 150149Z 07009KT 28/15 A3005 RMK A01 T02770149  RH  046%=      5-min Rain = 0
KCA1 150150Z 07009KT 28/15 A3005 RMK A01 T02770149  RH  045%=      5-min Rain = 0
KCA1 150151Z 07009KT 28/15 A3005 RMK A01 T02770148  RH  045%=      5-min Rain = 0
KCA1 150152Z 07009KT 28/15 A3005 RMK A01 T02780149  RH  045%=      5-min Rain = 0
KCA1 150153Z 07009KT 28/15 A3006 RMK A01 T02770149  RH  045%=      5-min Rain = 0
KCA1 150154Z 07009KT 28/15 A3006 RMK A01 T02770149  RH  045%=      5-min Rain = 0
KCA1 150155Z 07009KT 28/15 A3006 RMK A01 T02770149  RH  046%=      5-min Rain = 0
KCA1 150156Z 07009KT 28/15 A3006 RMK A01 T02770149  RH  046%=      5-min Rain = 0
KCA1 150157Z 07008KT 28/15 A3006 RMK A01 T02770149  RH  046%=      5-min Rain = 0
KCA1 150158Z 07009KT 28/15 A3006 RMK A01 T02760149  RH  046%=      5-min Rain = 0
KCA1 150159Z 07008KT 28/15 A3006 RMK A01 T02760149  RH  046%=      5-min Rain = 0
KCA1 150200Z 07009KT 28/15 A3006 RMK A01 T02750149  RH  046%=      5-min Rain = 0
KCA1 150201Z 07008KT 28/15 A3006 RMK A01 T02750149  RH  046%=      5-min Rain = 0
KCA1 150202Z 07008KT 28/15 A3006 RMK A01 T02750149  RH  046%=      5-min Rain = 0
KCA1 150203Z 07008KT 28/15 A3006 RMK A01 T02750149  RH  046%=      5-min Rain = 0
KCA1 150204Z 07009KT 28/15 A3006 RMK A01 T02750149  RH  046%=      5-min Rain = 0
KCA1 150205Z 07009KT 28/15 A3006 RMK A01 T02750149  RH  046%=      5-min Rain = 0
KCA1 150206Z 07009KT 27/15 A3006 RMK A01 T02740149  RH  046%=      5-min Rain = 0
KCA1 150207Z 07008KT 27/15 A3006 RMK A01 T02740150  RH  047%=      5-min Rain = 0
KCA1 150208Z 07008KT 27/15 A3006 RMK A01 T02730150  RH  047%=      5-min Rain = 0
KCA1 150209Z 07008KT 27/15 A3006 RMK A01 T02720150  RH  047%=      5-min Rain = 0
KCA1 150210Z 07008KT 27/15 A3006 RMK A01 T02710150  RH  048%=      5-min Rain = 0
KCA1 150211Z 07009KT 27/15 A3006 RMK A01 T02710150  RH  048%=      5-min Rain = 0
KCA1 150212Z 07009KT 27/15 A3006 RMK A01 T02710150  RH  048%=      5-min Rain = 0
KCA1 150213Z 07008KT 27/15 A3006 RMK A01 T02700150  RH  048%=      5-min Rain = 0
KCA1 150214Z 07009KT 27/15 A3006 RMK A01 T02700151  RH  048%=      5-min Rain = 0
KCA1 150215Z 07008KT 27/15 A3006 RMK A01 T02700151  RH  048%=      5-min Rain = 0
KCA1 150216Z 07008KT 27/15 A3006 RMK A01 T02690151  RH  048%=      5-min Rain = 0
KCA1 150217Z 07008KT 27/15 A3007 RMK A01 T02690151  RH  048%=      5-min Rain = 0
KCA1 150218Z 07007KT 27/15 A3007 RMK A01 T02690151  RH  048%=      5-min Rain = 0
KCA1 150219Z 07008KT 27/15 A3007 RMK A01 T02690151  RH  048%=      5-min Rain = 0
KCA1 150220Z 07007KT 27/15 A3007 RMK A01 T02680151  RH  049%=      5-min Rain = 0
KCA1 150221Z 07007KT 27/15 A3007 RMK A01 T02670151  RH  049%=      5-min Rain = 0
KCA1 150222Z 08007KT 27/15 A3007 RMK A01 T02670152  RH  049%=      5-min Rain = 0
KCA1 150223Z 09006KT 27/15 A3007 RMK A01 T02660152  RH  050%=      5-min Rain = 0
KCA1 150224Z 15007KT 27/15 A3007 RMK A01 T02650153  RH  050%=      5-min Rain = 0
KCA1 150225Z 14008KT 26/16 A3008 RMK A01 T02630155  RH  051%=      5-min Rain = 0
KCA1 150226Z 11006KT 26/16 A3007 RMK A01 T02610157  RH  053%=      5-min Rain = 0
KCA1 150227Z 10005KT 26/16 A3007 RMK A01 T02600157  RH  053%=      5-min Rain = 0
KCA1 150228Z 11006KT 26/16 A3008 RMK A01 T02610156  RH  052%=      5-min Rain = 0
KCA1 150229Z 11006KT 26/16 A3008 RMK A01 T02640157  RH  052%=      5-min Rain = 0
KCA1 150230Z 13007KT 26/16 A3008 RMK A01 T02640157  RH  052%=      5-min Rain = 0
KCA1 150231Z 13006KT 26/16 A3008 RMK A01 T02640158  RH  052%=      5-min Rain = 0
KCA1 150232Z 12006KT 26/16 A3008 RMK A01 T02630159  RH  052%=      5-min Rain = 0
KCA1 150233Z 12006KT 26/16 A3008 RMK A01 T02620159  RH  053%=      5-min Rain = 0
KCA1 150234Z 12005KT 26/16 A3008 RMK A01 T02610159  RH  054%=      5-min Rain = 0
KCA1 150235Z 12006KT 26/16 A3008 RMK A01 T02600160  RH  054%=      5-min Rain = 0
KCA1 150236Z 13006KT 26/16 A3008 RMK A01 T02590161  RH  055%=      5-min Rain = 0
KCA1 150237Z 13006KT 26/16 A3008 RMK A01 T02570161  RH  055%=      5-min Rain = 0
KCA1 150238Z 13007KT 26/16 A3008 RMK A01 T02560161  RH  056%=      5-min Rain = 0
KCA1 150239Z 12007KT 26/16 A3008 RMK A01 T02550161  RH  056%=      5-min Rain = 0
KCA1 150240Z 12006KT 26/16 A3008 RMK A01 T02550162  RH  056%=      5-min Rain = 0
KCA1 150241Z 11005KT 25/16 A3008 RMK A01 T02540162  RH  057%=      5-min Rain = 0
KCA1 150242Z 11005KT 25/16 A3008 RMK A01 T02540162  RH  057%=      5-min Rain = 0
KCA1 150243Z 12006KT 25/16 A3008 RMK A01 T02540162  RH  057%=      5-min Rain = 0
KCA1 150244Z 12006KT 25/16 A3009 RMK A01 T02530162  RH  057%=      5-min Rain = 0
KCA1 150245Z 12006KT 25/16 A3009 RMK A01 T02530162  RH  057%=      5-min Rain = 0
KCA1 150246Z 11006KT 25/16 A3009 RMK A01 T02530163  RH  057%=      5-min Rain = 0
KCA1 150247Z 11006KT 25/16 A3009 RMK A01 T02520162  RH  058%=      5-min Rain = 0
KCA1 150248Z 11006KT 25/16 A3009 RMK A01 T02510162  RH  058%=      5-min Rain = 0
KCA1 150249Z 11007KT 25/16 A3009 RMK A01 T02510162  RH  058%=      5-min Rain = 0
KCA1 150250Z 11007KT 25/16 A3009 RMK A01 T02500162  RH  058%=      5-min Rain = 0
KCA1 150251Z 11007KT 25/16 A3009 RMK A01 T02500162  RH  058%=      5-min Rain = 0
KCA1 150252Z 11008KT 25/16 A3009 RMK A01 T02500163  RH  058%=      5-min Rain = 0
KCA1 150253Z 11008KT 25/16 A3009 RMK A01 T02500163  RH  058%=      5-min Rain = 0
KCA1 150254Z 10008KT 25/16 A3009 RMK A01 T02500163  RH  059%=      5-min Rain = 0
KCA1 150255Z 10007KT 25/16 A3009 RMK A01 T02500163  RH  059%=      5-min Rain = 0
KCA1 150256Z 10007KT 25/16 A3009 RMK A01 T02500163  RH  059%=      5-min Rain = 0
KCA1 150257Z 09007KT 25/16 A3009 RMK A01 T02490163  RH  059%=      5-min Rain = 0
KCA1 150258Z 09007KT 25/16 A3009 RMK A01 T02480163  RH  059%=      5-min Rain = 0
KCA1 150259Z 09007KT 25/16 A3009 RMK A01 T02480164  RH  060%=      5-min Rain = 0
KCA1 150300Z 09008KT 25/16 A3009 RMK A01 T02470164  RH  060%=      5-min Rain = 0
KCA1 150301Z 09008KT 25/16 A3009 RMK A01 T02470163  RH  060%=      5-min Rain = 0
KCA1 150302Z 09008KT 25/16 A3009 RMK A01 T02470163  RH  060%=      5-min Rain = 0
KCA1 150303Z 09008KT 25/16 A301 RMK A01 T02470164  RH  060%=      5-min Rain = 0
KCA1 150304Z 09008KT 25/16 A301 RMK A01 T02490164  RH  059%=      5-min Rain = 0
KCA1 150305Z 09009KT 25/16 A301 RMK A01 T02480164  RH  059%=      5-min Rain = 0
KCA1 150306Z 09009KT 25/16 A301 RMK A01 T02490164  RH  059%=      5-min Rain = 0
KCA1 150307Z 09009KT 25/16 A301 RMK A01 T02490164  RH  059%=      5-min Rain = 0
KCA1 150308Z 08009KT 25/17 A301 RMK A01 T02490165  RH  059%=      5-min Rain = 0
KCA1 150309Z 08008KT 25/17 A301 RMK A01 T02490165  RH  059%=      5-min Rain = 0
KCA1 150310Z 07008KT 25/17 A301 RMK A01 T02490165  RH  059%=      5-min Rain = 0
KCA1 150311Z 08008KT 25/17 A301 RMK A01 T02480165  RH  060%=      5-min Rain = 0
KCA1 150312Z 09009KT 25/17 A301 RMK A01 T02470165  RH  060%=      5-min Rain = 0
KCA1 150313Z 09009KT 25/16 A301 RMK A01 T02470164  RH  060%=      5-min Rain = 0
KCA1 150314Z 10009KT 25/17 A301 RMK A01 T02480165  RH  060%=      5-min Rain = 0
KCA1 150315Z 09009KT 25/17 A301 RMK A01 T02490165  RH  060%=      5-min Rain = 0
KCA1 150316Z 09009KT 25/17 A301 RMK A01 T02500166  RH  060%=      5-min Rain = 0
KCA1 150317Z 09008KT 25/17 A301 RMK A01 T02510167  RH  060%=      5-min Rain = 0
KCA1 150318Z 08009KT 25/17 A301 RMK A01 T02500166  RH  060%=      5-min Rain = 0
KCA1 150319Z 08009KT 25/17 A301 RMK A01 T02500166  RH  060%=      5-min Rain = 0
KCA1 150320Z 08008KT 25/17 A301 RMK A01 T02490166  RH  060%=      5-min Rain = 0
KCA1 150321Z 08008KT 25/17 A301 RMK A01 T02490166  RH  060%=      5-min Rain = 0
KCA1 150322Z 08008KT 25/17 A301 RMK A01 T02490166  RH  060%=      5-min Rain = 0
KCA1 150323Z 08008KT 25/17 A301 RMK A01 T02490167  RH  060%=      5-min Rain = 0
KCA1 150324Z 08008KT 25/17 A301 RMK A01 T02490167  RH  060%=      5-min Rain = 0
KCA1 150325Z 08008KT 25/17 A301 RMK A01 T02490167  RH  060%=      5-min Rain = 0
KCA1 150326Z 08008KT 25/17 A301 RMK A01 T02490167  RH  060%=      5-min Rain = 0
KCA1 150327Z 08008KT 25/17 A301 RMK A01 T02490167  RH  060%=      5-min Rain = 0
KCA1 150328Z 08008KT 25/17 A301 RMK A01 T02490167  RH  060%=      5-min Rain = 0
KCA1 150329Z 08009KT 25/17 A301 RMK A01 T02490168  RH  060%=      5-min Rain = 0
KCA1 150330Z 09009KT 25/17 A301 RMK A01 T02490168  RH  060%=      5-min Rain = 0
KCA1 150331Z 08008KT 25/17 A301 RMK A01 T02500168  RH  060%=      5-min Rain = 0
KCA1 150332Z 08008KT 25/17 A301 RMK A01 T02500168  RH  060%=      5-min Rain = 0
KCA1 150333Z 08008KT 25/17 A301 RMK A01 T02500168  RH  060%=      5-min Rain = 0
KCA1 150334Z 07008KT 25/17 A301 RMK A01 T02490168  RH  061%=      5-min Rain = 0
KCA1 150335Z 07007KT 25/17 A3011 RMK A01 T02490168  RH  061%=      5-min Rain = 0
KCA1 150336Z 08008KT 25/17 A3011 RMK A01 T02470168  RH  061%=      5-min Rain = 0
KCA1 150337Z 08009KT 25/17 A3011 RMK A01 T02460168  RH  062%=      5-min Rain = 0
KCA1 150338Z 08009KT 25/17 A3011 RMK A01 T02460168  RH  062%=      5-min Rain = 0
KCA1 150339Z 08009KT 25/17 A3011 RMK A01 T02470168  RH  061%=      5-min Rain = 0
KCA1 150340Z 08009KT 25/17 A3011 RMK A01 T02480168  RH  061%=      5-min Rain = 0
KCA1 150341Z 08010KT 25/17 A3011 RMK A01 T02490168  RH  061%=      5-min Rain = 0
KCA1 150342Z 08009KT 25/17 A3011 RMK A01 T02490168  RH  061%=      5-min Rain = 0
KCA1 150343Z 08008KT 25/17 A3011 RMK A01 T02500169  RH  060%=      5-min Rain = 0
KCA1 150344Z 08009KT 25/17 A3011 RMK A01 T02510169  RH  060%=      5-min Rain = 0
KCA1 150345Z 08008KT 25/17 A3011 RMK A01 T02510169  RH  060%=      5-min Rain = 0
KCA1 150346Z 08008KT 25/17 A3011 RMK A01 T02500169  RH  061%=      5-min Rain = 0
KCA1 150347Z 08008KT 25/17 A3012 RMK A01 T02490169  RH  061%=      5-min Rain = 0
KCA1 150348Z 08008KT 25/17 A3012 RMK A01 T02480169  RH  062%=      5-min Rain = 0
KCA1 150349Z 08008KT 25/17 A3012 RMK A01 T02470169  RH  062%=      5-min Rain = 0
KCA1 150350Z 08008KT 25/17 A3012 RMK A01 T02460169  RH  062%=      5-min Rain = 0
KCA1 150351Z 08008KT 25/17 A3012 RMK A01 T02450169  RH  063%=      5-min Rain = 0
KCA1 150352Z 08008KT 24/17 A3012 RMK A01 T02440169  RH  063%=      5-min Rain = 0
KCA1 150353Z 07008KT 24/17 A3012 RMK A01 T02430169  RH  063%=      5-min Rain = 0
KCA1 150354Z 08008KT 24/17 A3012 RMK A01 T02430169  RH  064%=      5-min Rain = 0
KCA1 150355Z 08008KT 24/17 A3012 RMK A01 T02420169  RH  064%=      5-min Rain = 0
KCA1 150356Z 08008KT 24/17 A3012 RMK A01 T02410170  RH  064%=      5-min Rain = 0
KCA1 150357Z 08008KT 24/17 A3012 RMK A01 T02390170  RH  065%=      5-min Rain = 0
KCA1 150358Z 08008KT 24/17 A3013 RMK A01 T02380170  RH  065%=      5-min Rain = 0
KCA1 150359Z 08008KT 24/17 A3013 RMK A01 T02380169  RH  065%=      5-min Rain = 0
KCA1 150400Z 08008KT 24/17 A3013 RMK A01 T02370170  RH  066%=      5-min Rain = 0
KCA1 150401Z 08008KT 24/17 A3013 RMK A01 T02370170  RH  066%=      5-min Rain = 0
KCA1 150402Z 08008KT 24/17 A3013 RMK A01 T02360170  RH  066%=      5-min Rain = 0
KCA1 150403Z 08009KT 24/17 A3013 RMK A01 T02350170  RH  067%=      5-min Rain = 0
KCA1 150404Z 07009KT 23/17 A3013 RMK A01 T02340170  RH  067%=      5-min Rain = 0
KCA1 150405Z 07009KT 23/17 A3013 RMK A01 T02340170  RH  067%=      5-min Rain = 0
KCA1 150406Z 07009KT 23/17 A3013 RMK A01 T02330170  RH  068%=      5-min Rain = 0
KCA1 150407Z 07009KT 23/17 A3013 RMK A01 T02330170  RH  068%=      5-min Rain = 0
KCA1 150408Z 07009KT 23/17 A3013 RMK A01 T02330170  RH  068%=      5-min Rain = 0
KCA1 150409Z 07009KT 23/17 A3013 RMK A01 T02330170  RH  068%=      5-min Rain = 0
KCA1 150410Z 07009KT 23/17 A3013 RMK A01 T02330170  RH  068%=      5-min Rain = 0
KCA1 150411Z 07009KT 23/17 A3013 RMK A01 T02330170  RH  068%=      5-min Rain = 0
KCA1 150412Z 08009KT 23/17 A3013 RMK A01 T02330170  RH  068%=      5-min Rain = 0
KCA1 150413Z 07008KT 23/17 A3013 RMK A01 T02330170  RH  068%=      5-min Rain = 0
KCA1 150414Z 07008KT 23/17 A3013 RMK A01 T02330170  RH  068%=      5-min Rain = 0
KCA1 150415Z 07008KT 23/17 A3013 RMK A01 T02330170  RH  068%=      5-min Rain = 0
KCA1 150416Z 07009KT 23/17 A3013 RMK A01 T02330170  RH  068%=      5-min Rain = 0
KCA1 150417Z 07008KT 23/17 A3013 RMK A01 T02320170  RH  068%=      5-min Rain = 0
KCA1 150418Z 07008KT 23/17 A3013 RMK A01 T02330170  RH  068%=      5-min Rain = 0
KCA1 150419Z 07009KT 23/17 A3013 RMK A01 T02320170  RH  068%=      5-min Rain = 0
KCA1 150420Z 07008KT 23/17 A3013 RMK A01 T02310170  RH  068%=      5-min Rain = 0
KCA1 150421Z 07009KT 23/17 A3013 RMK A01 T02300170  RH  069%=      5-min Rain = 0
KCA1 150422Z 07008KT 23/17 A3014 RMK A01 T02290170  RH  069%=      5-min Rain = 0
KCA1 150423Z 07008KT 23/17 A3014 RMK A01 T02290170  RH  070%=      5-min Rain = 0
KCA1 150424Z 07008KT 23/17 A3014 RMK A01 T02280170  RH  070%=      5-min Rain = 0
KCA1 150425Z 08008KT 23/17 A3014 RMK A01 T02280170  RH  070%=      5-min Rain = 0
KCA1 150426Z 08008KT 23/17 A3014 RMK A01 T02270170  RH  070%=      5-min Rain = 0
KCA1 150427Z 07008KT 23/17 A3014 RMK A01 T02270170  RH  070%=      5-min Rain = 0
KCA1 150428Z 07008KT 23/17 A3014 RMK A01 T02270170  RH  070%=      5-min Rain = 0
KCA1 150429Z 08008KT 23/17 A3014 RMK A01 T02260170  RH  070%=      5-min Rain = 0
KCA1 150430Z 08008KT 23/17 A3014 RMK A01 T02260170  RH  071%=      5-min Rain = 0
KCA1 150431Z 07007KT 23/17 A3014 RMK A01 T02260170  RH  071%=      5-min Rain = 0
KCA1 150432Z 07008KT 23/17 A3014 RMK A01 T02250170  RH  071%=      5-min Rain = 0
KCA1 150433Z 07007KT 22/17 A3014 RMK A01 T02240169  RH  071%=      5-min Rain = 0
KCA1 150434Z 07008KT 22/17 A3014 RMK A01 T02240169  RH  071%=      5-min Rain = 0
KCA1 150435Z 07008KT 22/17 A3014 RMK A01 T02240169  RH  071%=      5-min Rain = 0
KCA1 150436Z 07008KT 22/17 A3014 RMK A01 T02240169  RH  071%=      5-min Rain = 0
KCA1 150437Z 07008KT 22/17 A3014 RMK A01 T02240169  RH  071%=      5-min Rain = 0
KCA1 150438Z 07008KT 23/17 A3014 RMK A01 T02250169  RH  071%=      5-min Rain = 0
KCA1 150439Z 07008KT 23/17 A3014 RMK A01 T02250168  RH  070%=      5-min Rain = 0
KCA1 150440Z 07008KT 23/17 A3014 RMK A01 T02260168  RH  070%=      5-min Rain = 0
KCA1 150441Z 07009KT 23/17 A3014 RMK A01 T02260168  RH  070%=      5-min Rain = 0
KCA1 150442Z 07009KT 23/17 A3014 RMK A01 T02270169  RH  070%=      5-min Rain = 0
KCA1 150443Z 07009KT 23/17 A3014 RMK A01 T02270169  RH  070%=      5-min Rain = 0
KCA1 150444Z 07009KT 23/17 A3014 RMK A01 T02260168  RH  070%=      5-min Rain = 0
KCA1 150445Z 07009KT 23/17 A3014 RMK A01 T02260169  RH  070%=      5-min Rain = 0
KCA1 150446Z 07009KT 23/17 A3014 RMK A01 T02250168  RH  070%=      5-min Rain = 0
KCA1 150447Z 07009KT 23/17 A3014 RMK A01 T02250168  RH  070%=      5-min Rain = 0
KCA1 150448Z 07009KT 23/17 A3014 RMK A01 T02250168  RH  070%=      5-min Rain = 0
KCA1 150449Z 07008KT 23/17 A3014 RMK A01 T02250168  RH  070%=      5-min Rain = 0
KCA1 150450Z 07008KT 22/17 A3014 RMK A01 T02240168  RH  071%=      5-min Rain = 0
KCA1 150451Z 07008KT 22/17 A3014 RMK A01 T02240168  RH  071%=      5-min Rain = 0
KCA1 150452Z 07008KT 22/17 A3014 RMK A01 T02230168  RH  071%=      5-min Rain = 0
KCA1 150453Z 07008KT 22/17 A3014 RMK A01 T02210168  RH  072%=      5-min Rain = 0
KCA1 150454Z 07009KT 22/17 A3014 RMK A01 T02200168  RH  072%=      5-min Rain = 0
KCA1 150455Z 06008KT 22/17 A3014 RMK A01 T02190168  RH  073%=      5-min Rain = 0
KCA1 150456Z 06009KT 22/17 A3014 RMK A01 T02180168  RH  073%=      5-min Rain = 0
KCA1 150457Z 06009KT 22/17 A3014 RMK A01 T02170168  RH  073%=      5-min Rain = 0
KCA1 150458Z 06009KT 22/17 A3013 RMK A01 T02170168  RH  073%=      5-min Rain = 0
KCA1 150459Z 07009KT 22/17 A3013 RMK A01 T02170168  RH  073%=      5-min Rain = 0

Page generated in 0.1171 seconds.